Time,TemperatureF,DewpointF,PressureIn,WindDirection,WindDirectionDegrees,WindSpeedMPH,WindSpeedGustMPH,Humidity,HourlyPrecipIn,Conditions,Clouds,dailyrainin,SoftwareType,DateUTC
2013-04-29 08:34:00,55.9,55.9,30.08,SSE,163,0.0,18.4,100,0.00,BKN,OVC,0.26,WeatherDisplay:10.37,2013-04-29 12:34:00,
2013-04-29 08:35:00,55.9,55.9,30.08,SSE,163,0.0,18.4,100,0.00,BKN,OVC,0.26,WeatherDisplay:10.37,2013-04-29 12:35:00,
2013-04-29 08:36:00,55.9,55.9,30.08,SSE,163,0.0,0.0,100,0.00,BKN,OVC,0.26,WeatherDisplay:10.37,2013-04-29 12:36:00,
2013-04-29 08:39:00,55.9,55.9,30.08,SSE,163,0.0,0.0,100,0.00,BKN,OVC,0.26,WeatherDisplay:10.37,2013-04-29 12:39:00,
2013-04-29 08:42:00,56.0,56.0,30.08,SSE,163,0.0,0.0,100,0.00,BKN,OVC,0.26,WeatherDisplay:10.37,2013-04-29 12:42:00,
2013-04-29 08:44:00,56.0,56.0,30.08,SSE,163,0.0,1.1,100,0.00,BKN,OVC,0.26,WeatherDisplay:10.37,2013-04-29 12:44:00,
2013-04-29 08:46:00,56.0,56.0,30.08,SSE,163,0.0,0.0,100,0.00,BKN,OVC,0.26,WeatherDisplay:10.37,2013-04-29 12:46:00,
2013-04-29 08:48:00,56.0,56.0,30.08,SSE,163,2.5,3.5,100,0.00,BKN,OVC,0.26,WeatherDisplay:10.37,2013-04-29 12:48:00,
2013-04-29 08:49:00,56.0,56.0,30.08,SSE,163,1.8,3.5,100,0.00,BKN,OVC,0.26,WeatherDisplay:10.37,2013-04-29 12:49:00,
2013-04-29 08:53:00,56.0,56.0,30.08,SSE,163,2.1,3.5,100,0.00,BKN,OVC,0.26,WeatherDisplay:10.37,2013-04-29 12:53:00,
2013-04-29 08:54:00,56.0,56.0,30.08,SSE,163,1.9,3.5,100,0.00,BKN,OVC,0.26,WeatherDisplay:10.37,2013-04-29 12:54:00,
2013-04-29 08:57:00,56.0,56.0,30.08,SSE,163,0.0,0.0,100,0.00,BKN,OVC,0.26,WeatherDisplay:10.37,2013-04-29 12:57:00,
2013-04-29 08:59:00,56.0,56.0,30.08,SSE,163,1.8,3.5,100,0.00,BKN,OVC,0.26,WeatherDisplay:10.37,2013-04-29 12:59:00,
2013-04-29 09:00:00,56.0,56.0,30.08,SSE,163,0.0,4.0,100,0.00,BKN,OVC,0.26,WeatherDisplay:10.37,2013-04-29 13:00:00,
2013-04-29 09:03:00,56.0,56.0,30.08,SSE,163,0.0,1.1,100,0.00,BKN,OVC,0.26,WeatherDisplay:10.37,2013-04-29 13:03:00,
2013-04-29 09:04:00,56.2,56.2,30.08,SSE,163,2.0,2.3,100,0.00,BKN,OVC,0.26,WeatherDisplay:10.37,2013-04-29 13:04:00,
2013-04-29 09:05:00,56.2,56.2,30.08,SSE,163,1.6,3.5,100,0.00,BKN,OVC,0.26,WeatherDisplay:10.37,2013-04-29 13:05:00,
2013-04-29 09:06:00,56.2,56.2,30.08,SSE,163,0.0,1.1,100,0.00,BKN,OVC,0.26,WeatherDisplay:10.37,2013-04-29 13:06:00,
2013-04-29 09:09:00,56.3,56.3,30.08,SSE,163,2.4,3.5,100,0.00,BKN,OVC,0.26,WeatherDisplay:10.37,2013-04-29 13:09:00,
2013-04-29 09:11:00,56.3,56.3,30.08,SSE,163,2.4,3.5,100,0.00,BKN,OVC,0.26,WeatherDisplay:10.37,2013-04-29 13:11:00,
2013-04-29 09:12:00,56.3,56.3,30.08,SSE,163,2.3,3.5,100,0.00,BKN,OVC,0.26,WeatherDisplay:10.37,2013-04-29 13:12:00,
2013-04-29 09:14:00,56.3,56.3,30.08,SSE,163,1.6,3.5,100,0.00,BKN,OVC,0.26,WeatherDisplay:10.37,2013-04-29 13:14:00,
2013-04-29 09:17:00,56.5,56.5,30.08,SSE,163,2.3,3.5,100,0.00,BKN,OVC,0.26,WeatherDisplay:10.37,2013-04-29 13:17:00,
2013-04-29 09:19:00,56.5,56.5,30.08,SSE,163,0.9,3.5,100,0.00,BKN,OVC,0.26,WeatherDisplay:10.37,2013-04-29 13:19:00,
2013-04-29 09:20:00,56.5,56.5,30.08,SSE,163,0.0,0.0,100,0.00,BKN,OVC,0.26,WeatherDisplay:10.37,2013-04-29 13:20:00,
2013-04-29 09:25:00,56.5,56.5,30.08,SSE,163,2.2,3.5,100,0.00,BKN,OVC,0.26,WeatherDisplay:10.37,2013-04-29 13:25:00,
2013-04-29 09:26:00,56.5,56.5,30.08,SSE,163,2.3,3.5,100,0.00,BKN,OVC,0.26,WeatherDisplay:10.37,2013-04-29 13:26:00,
2013-04-29 09:27:00,56.5,56.5,30.08,SSE,163,2.5,3.5,100,0.00,BKN,OVC,0.26,WeatherDisplay:10.37,2013-04-29 13:27:00,
2013-04-29 09:30:00,56.5,56.5,30.08,SSE,163,2.0,3.0,100,0.00,BKN,OVC,0.26,WeatherDisplay:10.37,2013-04-29 13:30:00,
2013-04-29 09:32:00,56.5,56.5,30.08,SSE,163,2.3,4.0,100,0.00,BKN,OVC,0.26,WeatherDisplay:10.37,2013-04-29 13:32:00,
2013-04-29 09:34:00,56.5,56.5,30.08,SSE,163,0.0,0.0,100,0.00,BKN,OVC,0.26,WeatherDisplay:10.37,2013-04-29 13:34:00,
2013-04-29 09:35:00,56.5,56.5,30.08,SSE,163,0.0,0.0,100,0.00,BKN,OVC,0.26,WeatherDisplay:10.37,2013-04-29 13:35:00,
2013-04-29 09:36:00,56.5,56.5,30.08,SSE,163,0.0,0.0,100,0.00,BKN,OVC,0.26,WeatherDisplay:10.37,2013-04-29 13:36:00,
2013-04-29 09:37:00,56.5,56.5,30.08,SSE,163,0.6,4.0,100,0.00,BKN,OVC,0.26,WeatherDisplay:10.37,2013-04-29 13:37:00,
2013-04-29 09:39:00,56.5,56.5,30.08,SSE,163,2.7,4.0,100,0.00,BKN,OVC,0.26,WeatherDisplay:10.37,2013-04-29 13:39:00,
2013-04-29 09:41:00,56.5,56.5,30.08,SSE,163,1.7,3.5,100,0.00,BKN,OVC,0.26,WeatherDisplay:10.37,2013-04-29 13:41:00,
2013-04-29 09:42:00,56.5,56.5,30.08,SSE,163,1.9,3.5,100,0.00,BKN,OVC,0.26,WeatherDisplay:10.37,2013-04-29 13:42:00,
2013-04-29 09:44:00,56.5,56.5,30.08,SSE,163,0.0,0.0,100,0.00,BKN,OVC,0.26,WeatherDisplay:10.37,2013-04-29 13:44:00,
2013-04-29 09:47:00,56.6,56.6,30.08,SSE,163,0.0,0.0,100,0.00,BKN,OVC,0.26,WeatherDisplay:10.37,2013-04-29 13:47:00,
2013-04-29 09:48:00,56.6,56.6,30.08,SSE,163,0.0,0.0,100,0.00,BKN,OVC,0.26,WeatherDisplay:10.37,2013-04-29 13:48:00,
2013-04-29 09:50:00,56.6,56.6,30.08,SSE,163,2.4,3.5,100,0.00,BKN,OVC,0.26,WeatherDisplay:10.37,2013-04-29 13:50:00,
2013-04-29 09:51:00,56.6,56.6,30.08,SSE,163,2.4,3.5,100,0.00,BKN,OVC,0.26,WeatherDisplay:10.37,2013-04-29 13:51:00,
2013-04-29 09:53:00,56.6,56.6,30.08,SSE,163,2.3,3.5,100,0.00,BKN,OVC,0.26,WeatherDisplay:10.37,2013-04-29 13:53:00,
2013-04-29 09:54:00,56.6,56.6,30.08,SSE,163,2.3,3.5,100,0.00,BKN,OVC,0.26,WeatherDisplay:10.37,2013-04-29 13:54:00,
2013-04-29 09:56:00,56.5,56.5,30.08,SSE,163,2.1,3.5,100,0.00,BKN,OVC,0.26,WeatherDisplay:10.37,2013-04-29 13:56:00,
2013-04-29 09:57:00,56.6,56.6,30.08,SSE,163,2.7,3.5,100,0.00,BKN,OVC,0.26,WeatherDisplay:10.37,2013-04-29 13:57:00,
2013-04-29 09:58:00,56.6,56.6,30.08,SSE,163,1.3,3.5,100,0.00,BKN,OVC,0.26,WeatherDisplay:10.37,2013-04-29 13:58:00,
2013-04-29 09:59:00,56.6,56.6,30.08,SSE,163,0.0,2.3,100,0.00,BKN,OVC,0.26,WeatherDisplay:10.37,2013-04-29 13:59:00,
2013-04-29 10:03:00,56.9,56.9,30.08,SSE,163,0.0,0.0,100,0.00,BKN,OVC,0.26,WeatherDisplay:10.37,2013-04-29 14:03:00,
2013-04-29 10:04:00,56.9,56.9,30.08,SSE,163,0.0,0.0,100,0.00,BKN,OVC,0.26,WeatherDisplay:10.37,2013-04-29 14:04:00,
2013-04-29 10:05:00,56.9,56.9,30.08,SSE,163,0.0,0.0,100,0.00,BKN,OVC,0.26,WeatherDisplay:10.37,2013-04-29 14:05:00,
2013-04-29 10:06:00,56.9,56.9,30.08,SSE,163,0.0,0.0,100,0.00,BKN,OVC,0.26,WeatherDisplay:10.37,2013-04-29 14:06:00,
2013-04-29 10:09:00,56.9,56.9,30.08,SSE,163,0.7,2.3,100,0.00,BKN,OVC,0.26,WeatherDisplay:10.37,2013-04-29 14:09:00,
2013-04-29 10:11:00,56.9,56.9,30.08,SSE,163,2.6,4.0,100,0.00,BKN,OVC,0.26,WeatherDisplay:10.37,2013-04-29 14:11:00,
2013-04-29 10:12:00,56.9,56.9,30.08,SSE,163,2.3,4.0,100,0.00,BKN,OVC,0.26,WeatherDisplay:10.37,2013-04-29 14:12:00,
2013-04-29 10:16:00,57.2,57.2,30.08,SSE,163,0.0,0.0,100,0.00,BKN,OVC,0.26,WeatherDisplay:10.37,2013-04-29 14:16:00,
2013-04-29 10:17:00,57.0,57.0,30.08,SSE,163,0.0,0.0,100,0.00,BKN,OVC,0.26,WeatherDisplay:10.37,2013-04-29 14:17:00,
2013-04-29 10:18:00,57.2,57.2,30.08,SSE,163,0.0,0.0,100,0.00,BKN,OVC,0.26,WeatherDisplay:10.37,2013-04-29 14:18:00,
2013-04-29 10:19:00,57.2,57.2,30.08,SSE,163,0.2,3.0,100,0.00,BKN,OVC,0.26,WeatherDisplay:10.37,2013-04-29 14:19:00,
2013-04-29 10:21:00,57.0,57.0,30.07,SSE,163,3.3,3.5,100,0.00,BKN,OVC,0.26,WeatherDisplay:10.37,2013-04-29 14:21:00,
2013-04-29 10:22:00,57.0,57.0,30.07,SSE,163,3.6,4.6,100,0.00,BKN,OVC,0.26,WeatherDisplay:10.37,2013-04-29 14:22:00,
2013-04-29 10:23:00,57.0,57.0,30.07,SSE,163,3.8,4.6,100,0.00,BKN,OVC,0.26,WeatherDisplay:10.37,2013-04-29 14:23:00,
2013-04-29 10:26:00,57.0,57.0,30.07,SSE,163,3.2,3.5,100,0.00,BKN,OVC,0.26,WeatherDisplay:10.37,2013-04-29 14:26:00,
2013-04-29 10:27:00,57.0,57.0,30.07,SSE,163,3.6,4.0,100,0.00,BKN,OVC,0.26,WeatherDisplay:10.37,2013-04-29 14:27:00,
2013-04-29 10:28:00,57.0,57.0,30.07,SSE,163,3.3,3.5,100,0.00,BKN,OVC,0.26,WeatherDisplay:10.37,2013-04-29 14:28:00,
2013-04-29 10:32:00,57.2,57.2,30.07,SSE,163,2.2,3.5,100,0.00,BKN,OVC,0.26,WeatherDisplay:10.37,2013-04-29 14:32:00,
2013-04-29 10:33:00,57.2,57.2,30.07,SSE,163,1.9,3.5,100,0.00,BKN,OVC,0.26,WeatherDisplay:10.37,2013-04-29 14:33:00,
2013-04-29 10:34:00,57.3,57.3,30.07,SSE,163,2.0,3.5,100,0.00,BKN,OVC,0.26,WeatherDisplay:10.37,2013-04-29 14:34:00,
2013-04-29 10:36:00,57.3,57.3,30.07,SSE,163,2.2,3.5,100,0.00,BKN,OVC,0.26,WeatherDisplay:10.37,2013-04-29 14:36:00,
2013-04-29 10:38:00,57.5,57.5,30.07,SSE,163,2.4,3.5,100,0.00,BKN,OVC,0.26,WeatherDisplay:10.37,2013-04-29 14:38:00,
2013-04-29 10:39:00,57.6,57.6,30.07,SSE,163,2.7,3.5,100,0.00,BKN,OVC,0.26,WeatherDisplay:10.37,2013-04-29 14:39:00,
2013-04-29 10:40:00,57.6,57.6,30.07,SSE,163,3.1,3.5,100,0.00,BKN,OVC,0.26,WeatherDisplay:10.37,2013-04-29 14:40:00,
2013-04-29 10:42:00,57.8,57.8,30.07,SSE,163,3.5,3.5,100,0.00,BKN,OVC,0.26,WeatherDisplay:10.37,2013-04-29 14:42:00,
2013-04-29 10:45:00,57.8,57.8,30.07,SSE,163,3.2,3.5,100,0.00,BKN,OVC,0.26,WeatherDisplay:10.37,2013-04-29 14:45:00,
2013-04-29 10:46:00,58.0,58.0,30.07,SSE,163,0.3,3.5,100,0.00,BKN,OVC,0.26,WeatherDisplay:10.37,2013-04-29 14:46:00,
2013-04-29 10:50:00,58.3,58.3,30.07,SSE,163,2.3,3.5,100,0.00,BKN,OVC,0.26,WeatherDisplay:10.37,2013-04-29 14:50:00,
2013-04-29 10:51:00,58.3,58.3,30.07,SSE,163,2.1,3.5,100,0.00,BKN,OVC,0.26,WeatherDisplay:10.37,2013-04-29 14:51:00,
2013-04-29 10:52:00,58.3,58.3,30.07,SSE,163,0.0,0.0,100,0.00,BKN,OVC,0.26,WeatherDisplay:10.37,2013-04-29 14:52:00,
2013-04-29 10:53:00,58.4,58.4,30.07,SSE,163,0.0,0.0,100,0.00,BKN,OVC,0.26,WeatherDisplay:10.37,2013-04-29 14:53:00,
2013-04-29 10:57:00,58.4,58.4,30.07,SSE,163,1.4,2.0,100,0.00,BKN,OVC,0.26,WeatherDisplay:10.37,2013-04-29 14:57:00,
2013-04-29 10:58:00,58.4,58.4,30.07,SSE,163,2.4,3.5,100,0.00,BKN,OVC,0.26,WeatherDisplay:10.37,2013-04-29 14:58:00,
2013-04-29 10:59:00,58.4,58.4,30.07,SSE,163,2.2,3.5,100,0.00,BKN,OVC,0.26,WeatherDisplay:10.37,2013-04-29 14:59:00,
2013-04-29 11:01:00,58.3,58.3,30.07,SSE,163,2.9,3.5,100,0.00,OVC,,0.26,WeatherDisplay:10.37,2013-04-29 15:01:00,
2013-04-29 11:04:00,58.4,58.4,30.07,SSE,163,3.0,3.5,100,0.00,OVC,,0.26,WeatherDisplay:10.37,2013-04-29 15:04:00,
2013-04-29 11:05:00,58.4,58.4,30.08,SSE,163,3.2,4.0,100,0.00,OVC,,0.26,WeatherDisplay:10.37,2013-04-29 15:05:00,
2013-04-29 11:06:00,58.4,58.4,30.08,SSE,163,3.2,5.0,100,0.00,OVC,,0.26,WeatherDisplay:10.37,2013-04-29 15:06:00,
2013-04-29 11:07:00,58.4,58.4,30.08,SSE,163,4.2,4.6,100,0.00,OVC,,0.26,WeatherDisplay:10.37,2013-04-29 15:07:00,
2013-04-29 11:09:00,58.4,58.4,30.08,SSE,163,1.0,3.5,100,0.00,OVC,,0.26,WeatherDisplay:10.37,2013-04-29 15:09:00,
2013-04-29 11:11:00,58.4,58.4,30.08,SSE,163,0.0,0.0,100,0.00,OVC,,0.26,WeatherDisplay:10.37,2013-04-29 15:11:00,
2013-04-29 11:13:00,58.4,58.4,30.08,SSE,163,0.0,0.0,100,0.00,OVC,,0.26,WeatherDisplay:10.37,2013-04-29 15:13:00,
2013-04-29 11:16:00,58.7,58.4,30.08,SSE,163,0.0,2.3,99,0.00,OVC,,0.26,WeatherDisplay:10.37,2013-04-29 15:16:00,
2013-04-29 11:18:00,58.7,58.4,30.08,SSE,163,3.1,3.5,99,0.00,OVC,,0.26,WeatherDisplay:10.37,2013-04-29 15:18:00,
2013-04-29 11:19:00,58.7,58.4,30.08,SSE,163,0.5,3.5,99,0.00,OVC,,0.26,WeatherDisplay:10.37,2013-04-29 15:19:00,
2013-04-29 11:20:00,59.0,58.7,30.08,SSE,163,0.2,4.0,99,0.00,OVC,,0.26,WeatherDisplay:10.37,2013-04-29 15:20:00,
2013-04-29 11:22:00,59.0,58.7,30.08,SSE,163,1.7,3.5,99,0.00,OVC,,0.26,WeatherDisplay:10.37,2013-04-29 15:22:00,
2013-04-29 11:23:00,58.9,58.3,30.08,SSE,163,1.1,2.3,98,0.00,OVC,,0.26,WeatherDisplay:10.37,2013-04-29 15:23:00,
2013-04-29 11:25:00,58.9,58.3,30.08,SSE,163,1.3,3.5,98,0.00,OVC,,0.26,WeatherDisplay:10.37,2013-04-29 15:25:00,
2013-04-29 11:27:00,59.0,58.4,30.08,SSE,163,1.9,5.0,98,0.00,OVC,,0.26,WeatherDisplay:10.37,2013-04-29 15:27:00,
2013-04-29 11:28:00,59.2,58.6,30.08,SSE,163,2.3,4.6,98,0.00,OVC,,0.26,WeatherDisplay:10.37,2013-04-29 15:28:00,
2013-04-29 11:29:00,59.2,58.6,30.08,SSE,163,2.7,3.5,98,0.00,OVC,,0.26,WeatherDisplay:10.37,2013-04-29 15:29:00,
2013-04-29 11:30:00,59.2,58.3,30.08,SSE,163,2.1,3.5,97,0.00,OVC,,0.26,WeatherDisplay:10.37,2013-04-29 15:30:00,
2013-04-29 11:34:00,59.3,58.2,30.08,SSE,163,0.0,0.0,96,0.00,OVC,,0.26,WeatherDisplay:10.37,2013-04-29 15:34:00,
2013-04-29 11:36:00,59.3,58.2,30.08,SSE,163,0.0,0.0,96,0.00,OVC,,0.26,WeatherDisplay:10.37,2013-04-29 15:36:00,
2013-04-29 11:38:00,59.5,58.4,30.08,SSE,163,0.0,0.0,96,0.00,OVC,,0.26,WeatherDisplay:10.37,2013-04-29 15:38:00,
2013-04-29 11:39:00,59.5,58.4,30.08,SSE,163,0.0,0.0,96,0.00,OVC,,0.26,WeatherDisplay:10.37,2013-04-29 15:39:00,
2013-04-29 11:40:00,59.6,58.5,30.08,SSE,163,0.0,0.0,96,0.00,OVC,,0.26,WeatherDisplay:10.37,2013-04-29 15:40:00,
2013-04-29 11:41:00,59.8,58.4,30.08,SSE,163,0.1,1.1,95,0.00,OVC,,0.26,WeatherDisplay:10.37,2013-04-29 15:41:00,
2013-04-29 11:43:00,59.9,58.5,30.08,SSE,163,0.0,0.0,95,0.00,OVC,,0.26,WeatherDisplay:10.37,2013-04-29 15:43:00,
2013-04-29 11:45:00,59.9,58.2,30.08,SSE,163,2.5,3.5,94,0.00,OVC,,0.26,WeatherDisplay:10.37,2013-04-29 15:45:00,
2013-04-29 11:46:00,59.9,58.2,30.08,SSE,163,2.7,3.5,94,0.00,OVC,,0.26,WeatherDisplay:10.37,2013-04-29 15:46:00,
2013-04-29 11:48:00,60.1,58.4,30.08,SSE,163,2.1,3.5,94,0.00,OVC,,0.26,WeatherDisplay:10.37,2013-04-29 15:48:00,
2013-04-29 11:51:00,60.1,57.8,30.08,SSE,163,0.5,2.3,92,0.00,OVC,,0.26,WeatherDisplay:10.37,2013-04-29 15:51:00,
2013-04-29 11:52:00,60.1,57.8,30.08,SSE,163,0.0,0.0,92,0.00,OVC,,0.26,WeatherDisplay:10.37,2013-04-29 15:52:00,
2013-04-29 11:53:00,60.1,57.8,30.08,SSE,163,0.0,0.0,92,0.00,OVC,,0.26,WeatherDisplay:10.37,2013-04-29 15:53:00,
2013-04-29 11:56:00,60.1,57.8,30.08,SSE,163,0.0,0.0,92,0.00,OVC,,0.26,WeatherDisplay:10.37,2013-04-29 15:56:00,
2013-04-29 11:57:00,60.2,57.9,30.08,SSE,163,0.0,0.0,92,0.00,OVC,,0.26,WeatherDisplay:10.37,2013-04-29 15:57:00,
2013-04-29 11:58:00,60.2,57.9,30.08,SSE,163,0.0,0.0,92,0.00,OVC,,0.26,WeatherDisplay:10.37,2013-04-29 15:58:00,
2013-04-29 11:59:00,60.2,57.9,30.08,SSE,163,0.0,0.0,92,0.00,OVC,,0.26,WeatherDisplay:10.37,2013-04-29 15:59:00,
2013-04-29 12:02:00,60.5,57.9,30.08,SSE,163,0.0,0.0,91,0.00,OVC,,0.26,WeatherDisplay:10.37,2013-04-29 16:02:00,
2013-04-29 12:04:00,60.5,57.9,30.08,SSE,163,0.0,0.0,91,0.00,OVC,,0.26,WeatherDisplay:10.37,2013-04-29 16:04:00,
2013-04-29 12:05:00,60.5,57.9,30.08,SSE,163,0.0,0.0,91,0.00,OVC,,0.26,WeatherDisplay:10.37,2013-04-29 16:05:00,
2013-04-29 12:06:00,60.7,58.1,30.08,SSE,163,0.0,0.0,91,0.00,OVC,,0.26,WeatherDisplay:10.37,2013-04-29 16:06:00,
2013-04-29 12:08:00,60.7,57.7,30.08,SSE,163,0.0,0.0,90,0.00,OVC,,0.26,WeatherDisplay:10.37,2013-04-29 16:08:00,
2013-04-29 12:09:00,60.9,57.9,30.08,SSE,163,0.0,0.0,90,0.00,OVC,,0.26,WeatherDisplay:10.37,2013-04-29 16:09:00,
2013-04-29 12:11:00,61.0,57.7,30.08,SSE,163,0.0,0.0,89,0.00,OVC,,0.26,WeatherDisplay:10.37,2013-04-29 16:11:00,
2013-04-29 12:13:00,61.2,58.2,30.08,SSE,163,0.0,0.0,90,0.00,OVC,,0.26,WeatherDisplay:10.37,2013-04-29 16:13:00,
2013-04-29 12:14:00,61.2,57.9,30.08,SSE,163,0.0,0.0,89,0.00,OVC,,0.26,WeatherDisplay:10.37,2013-04-29 16:14:00,
2013-04-29 12:17:00,61.2,57.6,30.08,SSE,163,0.0,0.0,88,0.00,OVC,,0.26,WeatherDisplay:10.37,2013-04-29 16:17:00,
2013-04-29 12:18:00,61.2,57.6,30.08,SSE,163,0.0,0.0,88,0.00,OVC,,0.26,WeatherDisplay:10.37,2013-04-29 16:18:00,
2013-04-29 12:19:00,61.3,57.7,30.08,SSE,163,0.0,0.0,88,0.00,OVC,,0.26,WeatherDisplay:10.37,2013-04-29 16:19:00,
2013-04-29 12:22:00,61.5,57.6,30.08,SSE,163,0.0,0.0,87,0.00,OVC,,0.26,WeatherDisplay:10.37,2013-04-29 16:22:00,
2013-04-29 12:24:00,61.5,57.6,30.08,SSE,163,0.0,0.0,87,0.00,OVC,,0.26,WeatherDisplay:10.37,2013-04-29 16:24:00,
2013-04-29 12:27:00,61.6,57.4,30.08,SSE,163,0.0,0.0,86,0.00,OVC,,0.26,WeatherDisplay:10.37,2013-04-29 16:27:00,
2013-04-29 12:29:00,61.8,57.6,30.08,SSE,163,0.0,0.0,86,0.00,OVC,,0.26,WeatherDisplay:10.37,2013-04-29 16:29:00,
2013-04-29 12:31:00,61.6,57.0,30.08,SSE,163,0.0,0.0,85,0.00,OVC,,0.26,WeatherDisplay:10.37,2013-04-29 16:31:00,
2013-04-29 12:32:00,61.6,57.4,30.08,SSE,163,0.0,0.0,86,0.00,OVC,,0.26,WeatherDisplay:10.37,2013-04-29 16:32:00,
2013-04-29 12:35:00,61.5,57.3,30.08,SSE,163,0.0,0.0,86,0.00,OVC,,0.26,WeatherDisplay:10.37,2013-04-29 16:35:00,
2013-04-29 12:36:00,61.5,57.3,30.08,SSE,163,0.0,0.0,86,0.00,OVC,,0.26,WeatherDisplay:10.37,2013-04-29 16:36:00,
2013-04-29 12:38:00,61.6,57.7,30.08,SSE,163,0.0,0.0,87,0.00,OVC,,0.26,WeatherDisplay:10.37,2013-04-29 16:38:00,
2013-04-29 12:39:00,61.6,57.7,30.08,SSE,163,0.0,0.0,87,0.00,OVC,,0.26,WeatherDisplay:10.37,2013-04-29 16:39:00,
2013-04-29 12:41:00,61.8,57.6,30.08,SSE,163,0.0,0.0,86,0.00,OVC,,0.26,WeatherDisplay:10.37,2013-04-29 16:41:00,
2013-04-29 12:42:00,61.8,57.6,30.08,SSE,163,0.0,1.0,86,0.00,OVC,,0.26,WeatherDisplay:10.37,2013-04-29 16:42:00,
2013-04-29 12:44:00,62.0,57.8,30.08,SSE,163,1.2,4.0,86,0.00,OVC,,0.26,WeatherDisplay:10.37,2013-04-29 16:44:00,
2013-04-29 12:45:00,62.0,57.8,30.08,SSE,163,3.0,4.6,86,0.00,OVC,,0.26,WeatherDisplay:10.37,2013-04-29 16:45:00,
2013-04-29 12:46:00,62.0,57.4,30.08,SSE,163,3.1,3.5,85,0.00,OVC,,0.26,WeatherDisplay:10.37,2013-04-29 16:46:00,
2013-04-29 12:48:00,62.0,57.4,30.08,SSE,163,2.3,3.5,85,0.00,OVC,,0.26,WeatherDisplay:10.37,2013-04-29 16:48:00,
2013-04-29 12:49:00,62.0,57.4,30.08,SSE,163,2.3,3.5,85,0.00,OVC,,0.26,WeatherDisplay:10.37,2013-04-29 16:49:00,
2013-04-29 12:52:00,62.0,57.1,30.08,SSE,163,2.2,3.5,84,0.00,OVC,,0.26,WeatherDisplay:10.37,2013-04-29 16:52:00,
2013-04-29 12:53:00,62.1,57.5,30.08,SSE,163,2.7,3.5,85,0.00,OVC,,0.26,WeatherDisplay:10.37,2013-04-29 16:53:00,
2013-04-29 12:54:00,62.1,57.2,30.08,SSE,163,2.9,3.5,84,0.00,OVC,,0.26,WeatherDisplay:10.37,2013-04-29 16:54:00,
2013-04-29 12:55:00,62.1,57.5,30.08,SSE,163,3.3,3.5,85,0.00,OVC,,0.26,WeatherDisplay:10.37,2013-04-29 16:55:00,
2013-04-29 12:57:00,62.1,57.2,30.08,SSE,163,2.9,3.5,84,0.00,OVC,,0.26,WeatherDisplay:10.37,2013-04-29 16:57:00,
2013-04-29 12:58:00,62.1,57.2,30.08,SSE,163,2.7,4.6,84,0.00,OVC,,0.26,WeatherDisplay:10.37,2013-04-29 16:58:00,
2013-04-29 12:59:00,62.1,57.2,30.08,SSE,163,2.4,3.5,84,0.00,OVC,,0.26,WeatherDisplay:10.37,2013-04-29 16:59:00,
2013-04-29 13:00:00,62.0,57.1,30.08,SSE,163,2.6,3.5,84,0.00,OVC,,0.26,WeatherDisplay:10.37,2013-04-29 17:00:00,
2013-04-29 13:01:00,62.1,57.2,30.08,SSE,163,3.1,3.5,84,0.00,OVC,,0.26,WeatherDisplay:10.37,2013-04-29 17:01:00,
2013-04-29 13:03:00,62.1,57.2,30.08,SSE,163,3.0,4.0,84,0.00,OVC,,0.26,WeatherDisplay:10.37,2013-04-29 17:03:00,
2013-04-29 13:05:00,62.1,57.5,30.08,SSE,163,2.2,3.5,85,0.00,OVC,,0.26,WeatherDisplay:10.37,2013-04-29 17:05:00,
2013-04-29 13:06:00,62.1,57.2,30.08,SSE,163,0.0,0.0,84,0.00,OVC,,0.26,WeatherDisplay:10.37,2013-04-29 17:06:00,
2013-04-29 13:10:00,62.6,58.0,30.08,SSE,163,3.5,4.0,85,0.00,OVC,,0.26,WeatherDisplay:10.37,2013-04-29 17:10:00,
2013-04-29 13:12:00,62.4,57.5,30.08,SSE,163,2.4,4.0,84,0.00,OVC,,0.26,WeatherDisplay:10.37,2013-04-29 17:12:00,
2013-04-29 13:13:00,62.6,57.7,30.08,SSE,163,3.3,4.6,84,0.00,OVC,,0.26,WeatherDisplay:10.37,2013-04-29 17:13:00,
2013-04-29 13:14:00,62.4,57.5,30.08,SSE,163,2.4,3.5,84,0.00,OVC,,0.26,WeatherDisplay:10.37,2013-04-29 17:14:00,
2013-04-29 13:15:00,62.4,57.2,30.08,SSE,163,2.0,3.5,83,0.00,OVC,,0.26,WeatherDisplay:10.37,2013-04-29 17:15:00,
2013-04-29 13:17:00,62.4,57.2,30.08,SSE,163,2.3,3.5,83,0.00,OVC,,0.26,WeatherDisplay:10.37,2013-04-29 17:17:00,
2013-04-29 13:18:00,62.4,57.2,30.08,SSE,163,1.8,3.5,83,0.00,OVC,,0.26,WeatherDisplay:10.37,2013-04-29 17:18:00,
2013-04-29 13:19:00,62.6,57.4,30.08,SSE,163,1.1,2.3,83,0.00,OVC,,0.26,WeatherDisplay:10.37,2013-04-29 17:19:00,
2013-04-29 13:21:00,62.7,57.5,30.07,SSE,163,0.1,1.1,83,0.00,OVC,,0.26,WeatherDisplay:10.37,2013-04-29 17:21:00,
2013-04-29 13:23:00,62.9,57.3,30.07,SSE,163,0.0,0.0,82,0.00,OVC,,0.26,WeatherDisplay:10.37,2013-04-29 17:23:00,
2013-04-29 13:24:00,63.1,57.5,30.07,SSE,163,0.0,0.0,82,0.00,OVC,,0.26,WeatherDisplay:10.37,2013-04-29 17:24:00,
2013-04-29 13:28:00,63.2,57.6,30.07,SSE,163,2.9,4.6,82,0.00,OVC,,0.26,WeatherDisplay:10.37,2013-04-29 17:28:00,
2013-04-29 13:29:00,63.2,57.6,30.07,SSE,163,2.7,3.5,82,0.00,OVC,,0.26,WeatherDisplay:10.37,2013-04-29 17:29:00,
2013-04-29 13:32:00,63.2,57.6,30.07,SSE,163,2.1,2.1,82,0.00,OVC,,0.26,WeatherDisplay:10.37,2013-04-29 17:32:00,
2013-04-29 13:33:00,63.2,57.6,30.07,SSE,163,4.4,5.8,82,0.00,OVC,,0.26,WeatherDisplay:10.37,2013-04-29 17:33:00,
2013-04-29 13:34:00,63.2,57.3,30.07,SSE,163,3.3,3.5,81,0.00,OVC,,0.26,WeatherDisplay:10.37,2013-04-29 17:34:00,
2013-04-29 13:35:00,63.2,57.6,30.07,SSE,163,1.6,3.5,82,0.00,OVC,,0.26,WeatherDisplay:10.37,2013-04-29 17:35:00,
2013-04-29 13:38:00,63.2,57.3,30.07,SSE,163,1.5,3.5,81,0.00,OVC,,0.26,WeatherDisplay:10.37,2013-04-29 17:38:00,
2013-04-29 13:40:00,63.2,57.6,30.07,SSE,163,4.7,4.7,82,0.00,OVC,,0.26,WeatherDisplay:10.37,2013-04-29 17:40:00,
2013-04-29 13:41:00,63.2,57.6,30.07,SSE,163,4.0,7.0,82,0.00,OVC,,0.26,WeatherDisplay:10.37,2013-04-29 17:41:00,
2013-04-29 13:42:00,63.2,57.6,30.07,SSE,163,5.1,5.1,82,0.00,OVC,,0.26,WeatherDisplay:10.37,2013-04-29 17:42:00,
2013-04-29 13:43:00,63.2,57.6,30.07,SSE,163,3.1,4.6,82,0.00,OVC,,0.26,WeatherDisplay:10.37,2013-04-29 17:43:00,
2013-04-29 13:45:00,63.4,57.8,30.07,SSE,163,0.7,2.3,82,0.00,OVC,,0.26,WeatherDisplay:10.37,2013-04-29 17:45:00,
2013-04-29 13:48:00,63.9,58.6,30.07,SSE,163,2.2,3.5,83,0.00,OVC,,0.26,WeatherDisplay:10.37,2013-04-29 17:48:00,
2013-04-29 13:50:00,64.2,58.9,30.07,SSE,163,3.4,6.0,83,0.00,OVC,,0.26,WeatherDisplay:10.37,2013-04-29 17:50:00,
2013-04-29 13:51:00,64.2,58.2,30.06,SSE,163,3.0,5.8,81,0.00,OVC,,0.26,WeatherDisplay:10.37,2013-04-29 17:51:00,
2013-04-29 13:52:00,64.2,58.2,30.06,SSE,163,1.6,5.8,81,0.00,OVC,,0.26,WeatherDisplay:10.37,2013-04-29 17:52:00,
2013-04-29 13:53:00,64.3,58.3,30.06,SSE,163,0.0,0.0,81,0.00,OVC,,0.26,WeatherDisplay:10.37,2013-04-29 17:53:00,
2013-04-29 13:57:00,64.5,58.5,30.06,SSE,163,0.0,0.0,81,0.00,OVC,,0.26,WeatherDisplay:10.37,2013-04-29 17:57:00,
2013-04-29 13:58:00,64.5,58.5,30.06,SSE,163,0.9,2.3,81,0.00,OVC,,0.26,WeatherDisplay:10.37,2013-04-29 17:58:00,
2013-04-29 13:59:00,64.7,58.4,30.06,SSE,163,3.1,4.0,80,0.00,OVC,,0.26,WeatherDisplay:10.37,2013-04-29 17:59:00,
2013-04-29 14:00:00,64.7,58.4,30.06,SSE,163,2.0,6.0,80,0.00,OVC,OVC,0.26,WeatherDisplay:10.37,2013-04-29 18:00:00,
2013-04-29 14:02:00,64.5,58.2,30.06,SSE,163,0.0,0.0,80,0.00,OVC,,0.26,WeatherDisplay:10.37,2013-04-29 18:02:00,
2013-04-29 14:04:00,64.7,58.4,30.06,SSE,163,4.9,4.9,80,0.00,OVC,,0.26,WeatherDisplay:10.37,2013-04-29 18:04:00,
2013-04-29 14:05:00,64.7,58.4,30.06,SSE,163,4.0,4.6,80,0.00,OVC,,0.26,WeatherDisplay:10.37,2013-04-29 18:05:00,
2013-04-29 14:06:00,64.7,58.4,30.06,SSE,163,3.7,4.6,80,0.00,OVC,,0.26,WeatherDisplay:10.37,2013-04-29 18:06:00,
2013-04-29 14:09:00,64.5,58.2,30.05,SSE,163,2.3,3.5,80,0.00,OVC,,0.26,WeatherDisplay:10.37,2013-04-29 18:09:00,
2013-04-29 14:11:00,64.3,58.3,30.05,SSE,163,0.0,1.1,81,0.00,OVC,,0.26,WeatherDisplay:10.37,2013-04-29 18:11:00,
2013-04-29 14:12:00,64.5,58.5,30.05,SSE,163,0.0,0.0,81,0.00,OVC,,0.26,WeatherDisplay:10.37,2013-04-29 18:12:00,
2013-04-29 14:16:00,64.3,58.0,30.05,SSE,163,3.8,4.6,80,0.00,OVC,,0.26,WeatherDisplay:10.37,2013-04-29 18:16:00,
2013-04-29 14:17:00,64.5,58.2,30.05,SSE,163,2.6,4.6,80,0.00,OVC,,0.26,WeatherDisplay:10.37,2013-04-29 18:17:00,
2013-04-29 14:18:00,64.7,58.4,30.05,SSE,163,1.1,3.5,80,0.00,OVC,,0.26,WeatherDisplay:10.37,2013-04-29 18:18:00,
2013-04-29 14:22:00,65.0,58.7,30.05,SSE,163,4.3,5.0,80,0.00,OVC,,0.26,WeatherDisplay:10.37,2013-04-29 18:22:00,
2013-04-29 14:23:00,65.0,58.7,30.05,SSE,163,4.0,4.6,80,0.00,OVC,,0.26,WeatherDisplay:10.37,2013-04-29 18:23:00,
2013-04-29 14:26:00,64.8,58.5,30.05,SSE,163,2.3,3.5,80,0.00,OVC,,0.26,WeatherDisplay:10.37,2013-04-29 18:26:00,
2013-04-29 14:27:00,64.8,58.1,30.05,SSE,163,0.0,0.0,79,0.00,OVC,,0.26,WeatherDisplay:10.37,2013-04-29 18:27:00,
2013-04-29 14:28:00,64.8,58.5,30.05,SSE,163,2.1,3.5,80,0.00,OVC,,0.26,WeatherDisplay:10.37,2013-04-29 18:28:00,
2013-04-29 14:29:00,64.8,58.5,30.05,SSE,163,3.3,6.0,80,0.00,OVC,,0.26,WeatherDisplay:10.37,2013-04-29 18:29:00,
2013-04-29 14:32:00,64.8,58.5,30.05,SSE,163,3.7,4.6,80,0.00,OVC,,0.26,WeatherDisplay:10.37,2013-04-29 18:32:00,
2013-04-29 14:33:00,65.0,59.4,30.05,SSE,163,3.8,4.6,82,0.00,OVC,,0.26,WeatherDisplay:10.37,2013-04-29 18:33:00,
2013-04-29 14:34:00,65.0,58.7,30.05,SSE,163,3.6,5.0,80,0.00,OVC,,0.26,WeatherDisplay:10.37,2013-04-29 18:34:00,
2013-04-29 14:35:00,65.0,58.7,30.05,SSE,163,4.7,5.8,80,0.00,OVC,,0.26,WeatherDisplay:10.37,2013-04-29 18:35:00,
2013-04-29 14:37:00,65.0,58.3,30.05,SSE,163,3.2,4.0,79,0.00,OVC,,0.26,WeatherDisplay:10.37,2013-04-29 18:37:00,
2013-04-29 14:39:00,65.2,58.9,30.05,SSE,163,3.9,4.6,80,0.00,OVC,,0.26,WeatherDisplay:10.37,2013-04-29 18:39:00,
2013-04-29 14:40:00,65.3,58.6,30.05,SSE,163,3.7,4.6,79,0.00,OVC,,0.26,WeatherDisplay:10.37,2013-04-29 18:40:00,
2013-04-29 14:41:00,65.3,58.3,30.05,SSE,163,3.8,5.0,78,0.00,OVC,,0.26,WeatherDisplay:10.37,2013-04-29 18:41:00,
2013-04-29 14:42:00,65.2,58.2,30.05,SSE,163,2.9,5.8,78,0.00,OVC,,0.26,WeatherDisplay:10.37,2013-04-29 18:42:00,
2013-04-29 14:44:00,65.5,58.5,30.05,SSE,163,4.3,7.0,78,0.00,OVC,,0.26,WeatherDisplay:10.37,2013-04-29 18:44:00,
2013-04-29 14:45:00,65.5,58.5,30.05,SSE,163,3.0,7.0,78,0.00,OVC,OVC,0.26,WeatherDisplay:10.37,2013-04-29 18:45:00,
2013-04-29 14:48:00,65.6,58.6,30.05,SSE,163,9.8,11.5,78,0.00,OVC,,0.26,WeatherDisplay:10.37,2013-04-29 18:48:00,
2013-04-29 14:49:00,65.6,58.6,30.04,SSE,163,7.6,11.5,78,0.00,OVC,,0.26,WeatherDisplay:10.37,2013-04-29 18:49:00,
2013-04-29 14:50:00,65.6,58.9,30.04,SSE,163,5.8,10.4,79,0.00,OVC,,0.26,WeatherDisplay:10.37,2013-04-29 18:50:00,
2013-04-29 14:51:00,65.6,58.9,30.04,SSE,163,4.0,10.4,79,0.00,OVC,,0.26,WeatherDisplay:10.37,2013-04-29 18:51:00,
2013-04-29 14:52:00,65.6,58.2,30.04,SSE,163,2.3,4.6,77,0.00,OVC,,0.26,WeatherDisplay:10.37,2013-04-29 18:52:00,
2013-04-29 14:54:00,65.8,58.7,30.04,SSE,163,4.4,9.0,78,0.00,OVC,,0.26,WeatherDisplay:10.37,2013-04-29 18:54:00,
2013-04-29 14:55:00,65.8,58.7,30.04,SSE,163,6.2,10.0,78,0.00,OVC,,0.26,WeatherDisplay:10.37,2013-04-29 18:55:00,
2013-04-29 14:56:00,65.8,58.4,30.04,SSE,163,7.6,10.4,77,0.00,OVC,,0.26,WeatherDisplay:10.37,2013-04-29 18:56:00,
2013-04-29 14:58:00,66.0,58.6,30.04,SSE,163,7.1,11.5,77,0.00,OVC,,0.26,WeatherDisplay:10.37,2013-04-29 18:58:00,
2013-04-29 15:00:00,66.1,58.7,30.04,SSE,163,6.0,9.2,77,0.00,OVC,,0.26,WeatherDisplay:10.37,2013-04-29 19:00:00,
2013-04-29 15:01:00,66.1,58.7,30.04,SSE,163,6.5,9.2,77,0.00,BKN,OVC,0.26,WeatherDisplay:10.37,2013-04-29 19:01:00,
2013-04-29 15:02:00,66.3,59.9,30.04,SSE,163,10.2,12.7,80,0.00,BKN,OVC,0.26,WeatherDisplay:10.37,2013-04-29 19:02:00,
2013-04-29 15:03:00,66.3,58.5,30.04,SSE,163,6.8,9.2,76,0.00,BKN,OVC,0.26,WeatherDisplay:10.37,2013-04-29 19:03:00,
2013-04-29 15:05:00,66.3,58.1,30.03,SSE,163,4.8,9.2,75,0.00,BKN,OVC,0.26,WeatherDisplay:10.37,2013-04-29 19:05:00,
2013-04-29 15:06:00,66.3,57.8,30.03,SSE,163,2.1,7.0,74,0.00,BKN,OVC,0.26,WeatherDisplay:10.37,2013-04-29 19:06:00,
2013-04-29 15:07:00,66.6,58.4,30.03,SSE,163,5.9,10.0,75,0.00,BKN,OVC,0.26,WeatherDisplay:10.37,2013-04-29 19:07:00,
2013-04-29 15:08:00,66.9,59.1,30.04,SSE,163,10.4,11.5,76,0.00,BKN,OVC,0.26,WeatherDisplay:10.37,2013-04-29 19:08:00,
2013-04-29 15:11:00,66.9,58.0,30.04,SSE,163,6.3,9.2,73,0.00,BKN,OVC,0.26,WeatherDisplay:10.37,2013-04-29 19:11:00,
2013-04-29 15:12:00,66.8,57.9,30.04,SSE,163,4.6,5.8,73,0.00,BKN,OVC,0.26,WeatherDisplay:10.37,2013-04-29 19:12:00,
2013-04-29 15:15:00,66.9,58.3,30.04,SSE,163,5.0,6.0,74,0.00,BKN,OVC,0.26,WeatherDisplay:10.37,2013-04-29 19:15:00,
2013-04-29 15:16:00,67.1,59.3,30.04,SSE,163,9.3,11.5,76,0.00,BKN,OVC,0.26,WeatherDisplay:10.37,2013-04-29 19:16:00,
2013-04-29 15:18:00,67.1,57.8,30.04,SSW,210,10.1,12.7,72,0.00,BKN,OVC,0.26,WeatherDisplay:10.37,2013-04-29 19:18:00,
2013-04-29 15:19:00,66.9,57.6,30.04,SSW,210,9.0,11.5,72,0.00,BKN,OVC,0.26,WeatherDisplay:10.37,2013-04-29 19:19:00,
2013-04-29 15:23:00,66.8,57.5,30.03,SSW,210,4.3,4.6,72,0.00,BKN,OVC,0.26,WeatherDisplay:10.37,2013-04-29 19:23:00,
2013-04-29 15:24:00,66.8,57.5,30.03,SSW,210,2.1,4.6,72,0.00,BKN,OVC,0.26,WeatherDisplay:10.37,2013-04-29 19:24:00,
2013-04-29 15:25:00,66.8,57.5,30.03,SSW,210,2.8,5.0,72,0.00,BKN,OVC,0.26,WeatherDisplay:10.37,2013-04-29 19:25:00,
2013-04-29 15:26:00,66.9,57.6,30.03,SSW,210,3.3,5.0,72,0.00,BKN,OVC,0.26,WeatherDisplay:10.37,2013-04-29 19:26:00,
2013-04-29 15:29:00,67.1,57.8,30.03,SSW,210,2.3,5.0,72,0.00,BKN,OVC,0.26,WeatherDisplay:10.37,2013-04-29 19:29:00,
2013-04-29 15:30:00,67.1,58.5,30.03,SSW,206,5.8,7.0,74,0.00,BKN,OVC,0.26,WeatherDisplay:10.37,2013-04-29 19:30:00,
2013-04-29 15:31:00,66.9,58.3,30.03,SSW,206,4.6,9.2,74,0.00,BKN,OVC,0.26,WeatherDisplay:10.37,2013-04-29 19:31:00,
2013-04-29 15:34:00,66.8,58.6,30.03,SSW,193,5.4,10.4,75,0.00,BKN,OVC,0.26,WeatherDisplay:10.37,2013-04-29 19:34:00,
2013-04-29 15:35:00,66.4,58.2,30.03,South,185,6.1,12.0,75,0.00,BKN,OVC,0.26,WeatherDisplay:10.37,2013-04-29 19:35:00,
2013-04-29 15:36:00,66.4,58.2,30.03,South,185,7.2,12.0,75,0.00,BKN,OVC,0.26,WeatherDisplay:10.37,2013-04-29 19:36:00,
2013-04-29 15:37:00,66.4,58.6,30.03,South,185,8.0,11.5,76,0.00,BKN,OVC,0.26,WeatherDisplay:10.37,2013-04-29 19:37:00,
2013-04-29 15:39:00,66.1,57.9,30.02,South,185,6.3,11.5,75,0.00,BKN,OVC,0.26,WeatherDisplay:10.37,2013-04-29 19:39:00,
2013-04-29 15:41:00,66.1,57.9,30.02,South,185,4.2,11.5,75,0.00,BKN,OVC,0.26,WeatherDisplay:10.37,2013-04-29 19:41:00,
2013-04-29 15:42:00,66.3,58.9,30.02,South,186,4.9,9.0,77,0.00,BKN,OVC,0.26,WeatherDisplay:10.37,2013-04-29 19:42:00,
2013-04-29 15:44:00,66.3,58.1,30.02,South,186,5.1,8.1,75,0.00,BKN,OVC,0.26,WeatherDisplay:10.37,2013-04-29 19:44:00,
2013-04-29 15:45:00,66.1,57.9,30.02,South,186,5.3,7.0,75,0.00,BKN,OVC,0.26,WeatherDisplay:10.37,2013-04-29 19:45:00,
2013-04-29 15:46:00,66.1,58.3,30.02,South,186,6.2,7.0,76,0.00,BKN,OVC,0.26,WeatherDisplay:10.37,2013-04-29 19:46:00,
2013-04-29 15:47:00,66.1,58.3,30.02,South,186,4.7,6.9,76,0.00,BKN,OVC,0.26,WeatherDisplay:10.37,2013-04-29 19:47:00,
2013-04-29 15:49:00,66.1,58.3,30.02,South,186,4.0,5.8,76,0.00,BKN,OVC,0.26,WeatherDisplay:10.37,2013-04-29 19:49:00,
2013-04-29 15:52:00,66.4,59.0,30.02,South,186,1.8,3.5,77,0.00,BKN,OVC,0.26,WeatherDisplay:10.37,2013-04-29 19:52:00,
2013-04-29 15:53:00,66.4,59.0,30.02,South,186,1.9,4.0,77,0.00,BKN,OVC,0.26,WeatherDisplay:10.37,2013-04-29 19:53:00,
2013-04-29 15:54:00,66.4,58.2,30.02,South,186,2.5,5.0,75,0.00,BKN,OVC,0.26,WeatherDisplay:10.37,2013-04-29 19:54:00,
2013-04-29 15:55:00,66.6,58.4,30.02,South,186,4.2,4.6,75,0.00,BKN,OVC,0.26,WeatherDisplay:10.37,2013-04-29 19:55:00,
2013-04-29 15:58:00,66.6,58.1,30.02,South,186,1.4,3.5,74,0.00,BKN,OVC,0.26,WeatherDisplay:10.37,2013-04-29 19:58:00,
2013-04-29 15:59:00,66.6,58.1,30.02,South,186,3.4,3.5,74,0.00,BKN,OVC,0.26,WeatherDisplay:10.37,2013-04-29 19:59:00,
2013-04-29 16:00:00,66.6,58.1,30.02,South,186,2.0,3.5,74,0.00,BKN,OVC,0.26,WeatherDisplay:10.37,2013-04-29 20:00:00,
2013-04-29 16:04:00,66.8,58.2,30.02,South,186,0.6,5.0,74,0.00,BKN,OVC,0.26,WeatherDisplay:10.37,2013-04-29 20:04:00,
2013-04-29 16:05:00,66.8,58.2,30.02,South,186,2.9,5.8,74,0.00,BKN,OVC,0.26,WeatherDisplay:10.37,2013-04-29 20:05:00,
2013-04-29 16:07:00,66.8,58.6,30.02,South,186,5.5,6.9,75,0.00,BKN,OVC,0.26,WeatherDisplay:10.37,2013-04-29 20:07:00,
2013-04-29 16:10:00,66.8,57.9,30.02,South,186,3.0,4.6,73,0.00,BKN,OVC,0.26,WeatherDisplay:10.37,2013-04-29 20:10:00,
2013-04-29 16:11:00,66.8,57.9,30.02,South,186,2.0,3.5,73,0.00,BKN,OVC,0.26,WeatherDisplay:10.37,2013-04-29 20:11:00,
2013-04-29 16:12:00,66.9,58.0,30.02,South,186,0.9,3.5,73,0.00,BKN,OVC,0.26,WeatherDisplay:10.37,2013-04-29 20:12:00,
2013-04-29 16:13:00,67.1,58.9,30.02,South,186,4.5,5.8,75,0.00,BKN,OVC,0.26,WeatherDisplay:10.37,2013-04-29 20:13:00,
2013-04-29 16:15:00,66.9,58.0,30.02,South,186,2.0,5.8,73,0.00,BKN,OVC,0.26,WeatherDisplay:10.37,2013-04-29 20:15:00,
2013-04-29 16:16:00,66.9,58.0,30.02,South,186,1.9,3.5,73,0.00,BKN,OVC,0.26,WeatherDisplay:10.37,2013-04-29 20:16:00,
2013-04-29 16:18:00,66.8,57.9,30.02,South,186,4.2,5.0,73,0.00,BKN,OVC,0.26,WeatherDisplay:10.37,2013-04-29 20:18:00,
2013-04-29 16:19:00,66.8,57.9,30.01,South,186,4.6,5.8,73,0.00,BKN,OVC,0.26,WeatherDisplay:10.37,2013-04-29 20:19:00,
2013-04-29 16:21:00,66.8,57.9,30.01,South,186,2.0,3.5,73,0.00,BKN,OVC,0.26,WeatherDisplay:10.37,2013-04-29 20:21:00,
2013-04-29 16:23:00,66.8,58.2,30.01,South,186,6.5,9.2,74,0.00,BKN,OVC,0.26,WeatherDisplay:10.37,2013-04-29 20:23:00,
2013-04-29 16:25:00,66.8,58.2,30.01,South,186,5.2,6.9,74,0.00,BKN,OVC,0.26,WeatherDisplay:10.37,2013-04-29 20:25:00,
2013-04-29 16:26:00,66.8,57.9,30.01,South,186,4.0,6.9,73,0.00,BKN,OVC,0.26,WeatherDisplay:10.37,2013-04-29 20:26:00,
2013-04-29 16:29:00,66.8,57.5,30.01,South,186,2.8,4.6,72,0.00,BKN,OVC,0.26,WeatherDisplay:10.37,2013-04-29 20:29:00,
2013-04-29 16:30:00,66.8,57.9,30.01,South,186,2.0,9.0,73,0.00,BKN,OVC,0.26,WeatherDisplay:10.37,2013-04-29 20:30:00,
2013-04-29 16:31:00,66.8,57.9,30.01,South,186,2.5,5.0,73,0.00,BKN,OVC,0.26,WeatherDisplay:10.37,2013-04-29 20:31:00,
2013-04-29 16:34:00,66.8,58.2,30.01,South,186,3.4,4.6,74,0.00,BKN,OVC,0.26,WeatherDisplay:10.37,2013-04-29 20:34:00,
2013-04-29 16:35:00,66.9,58.3,30.01,South,186,6.2,9.2,74,0.00,BKN,OVC,0.26,WeatherDisplay:10.37,2013-04-29 20:35:00,
2013-04-29 16:36:00,66.9,58.0,30.00,South,186,4.5,5.8,73,0.00,BKN,OVC,0.26,WeatherDisplay:10.37,2013-04-29 20:36:00,
2013-04-29 16:39:00,66.9,58.3,30.00,South,186,1.6,2.3,74,0.00,BKN,OVC,0.26,WeatherDisplay:10.37,2013-04-29 20:39:00,
2013-04-29 16:40:00,66.9,58.3,30.00,South,186,3.8,5.0,74,0.00,BKN,OVC,0.26,WeatherDisplay:10.37,2013-04-29 20:40:00,
2013-04-29 16:41:00,66.9,58.3,30.00,South,186,4.6,5.8,74,0.00,BKN,OVC,0.26,WeatherDisplay:10.37,2013-04-29 20:41:00,
2013-04-29 16:42:00,67.1,58.5,30.00,South,186,2.1,4.6,74,0.00,BKN,OVC,0.26,WeatherDisplay:10.37,2013-04-29 20:42:00,
2013-04-29 16:44:00,67.1,58.2,30.00,South,186,2.9,3.5,73,0.00,BKN,OVC,0.26,WeatherDisplay:10.37,2013-04-29 20:44:00,
2013-04-29 16:45:00,67.1,58.2,30.00,South,186,1.9,3.5,73,0.00,BKN,OVC,0.26,WeatherDisplay:10.37,2013-04-29 20:45:00,
2013-04-29 16:46:00,67.1,58.2,30.00,South,186,2.3,3.5,73,0.00,BKN,OVC,0.26,WeatherDisplay:10.37,2013-04-29 20:46:00,
2013-04-29 16:48:00,67.1,57.4,30.00,South,186,2.7,3.5,71,0.00,BKN,OVC,0.26,WeatherDisplay:10.37,2013-04-29 20:48:00,
2013-04-29 16:49:00,67.1,57.8,30.00,South,186,2.9,3.5,72,0.00,BKN,OVC,0.26,WeatherDisplay:10.37,2013-04-29 20:49:00,
2013-04-29 16:51:00,67.1,57.8,30.00,South,186,1.9,3.5,72,0.00,BKN,OVC,0.26,WeatherDisplay:10.37,2013-04-29 20:51:00,
2013-04-29 16:53:00,67.1,57.4,30.00,South,186,0.0,2.3,71,0.00,BKN,OVC,0.26,WeatherDisplay:10.37,2013-04-29 20:53:00,
2013-04-29 16:55:00,67.1,57.4,30.00,South,186,1.6,3.5,71,0.00,BKN,OVC,0.26,WeatherDisplay:10.37,2013-04-29 20:55:00,
2013-04-29 16:56:00,67.1,57.4,30.00,South,186,0.0,2.3,71,0.00,BKN,OVC,0.26,WeatherDisplay:10.37,2013-04-29 20:56:00,
2013-04-29 16:57:00,67.1,57.4,30.00,South,186,0.0,0.0,71,0.00,BKN,OVC,0.26,WeatherDisplay:10.37,2013-04-29 20:57:00,
2013-04-29 16:58:00,67.1,57.4,30.00,South,186,0.0,0.0,71,0.00,BKN,OVC,0.26,WeatherDisplay:10.37,2013-04-29 20:58:00,
2013-04-29 17:02:00,67.3,57.6,30.00,South,186,3.2,4.6,71,0.00,BKN,OVC,0.26,WeatherDisplay:10.37,2013-04-29 21:02:00,
2013-04-29 17:03:00,67.3,58.0,30.00,South,186,4.3,4.6,72,0.00,BKN,OVC,0.26,WeatherDisplay:10.37,2013-04-29 21:03:00,
2013-04-29 17:04:00,67.3,58.0,30.00,South,186,4.2,5.0,72,0.00,BKN,OVC,0.26,WeatherDisplay:10.37,2013-04-29 21:04:00,
2013-04-29 17:05:00,67.3,57.6,30.00,South,186,3.1,4.6,71,0.00,BKN,OVC,0.26,WeatherDisplay:10.37,2013-04-29 21:05:00,
2013-04-29 17:07:00,67.3,57.6,30.00,South,186,3.5,4.6,71,0.00,BKN,OVC,0.26,WeatherDisplay:10.37,2013-04-29 21:07:00,
2013-04-29 17:09:00,67.3,57.2,30.00,South,186,3.7,4.0,70,0.00,BKN,OVC,0.26,WeatherDisplay:10.37,2013-04-29 21:09:00,
2013-04-29 17:10:00,67.3,57.2,30.00,South,186,3.3,4.0,70,0.00,BKN,OVC,0.26,WeatherDisplay:10.37,2013-04-29 21:10:00,
2013-04-29 17:11:00,67.1,57.0,30.00,South,186,3.1,3.5,70,0.00,BKN,OVC,0.26,WeatherDisplay:10.37,2013-04-29 21:11:00,
2013-04-29 17:12:00,67.1,56.6,30.00,South,186,1.5,3.5,69,0.00,BKN,OVC,0.26,WeatherDisplay:10.37,2013-04-29 21:12:00,
2013-04-29 17:13:00,67.1,57.0,30.00,South,186,0.0,2.3,70,0.00,BKN,OVC,0.26,WeatherDisplay:10.37,2013-04-29 21:13:00,
2013-04-29 17:15:00,67.3,58.0,30.00,South,186,0.0,0.0,72,0.00,BKN,OVC,0.26,WeatherDisplay:10.37,2013-04-29 21:15:00,
2013-04-29 17:17:00,67.4,57.3,30.00,South,186,0.0,0.0,70,0.00,BKN,OVC,0.26,WeatherDisplay:10.37,2013-04-29 21:17:00,
2013-04-29 17:18:00,67.4,57.3,30.00,South,186,1.8,2.3,70,0.00,BKN,OVC,0.26,WeatherDisplay:10.37,2013-04-29 21:18:00,
2013-04-29 17:19:00,67.6,57.9,30.00,South,186,3.5,4.0,71,0.00,BKN,OVC,0.26,WeatherDisplay:10.37,2013-04-29 21:19:00,
2013-04-29 17:20:00,67.6,57.9,30.00,South,186,4.2,4.6,71,0.00,BKN,OVC,0.26,WeatherDisplay:10.37,2013-04-29 21:20:00,
2013-04-29 17:23:00,67.6,57.5,30.00,South,186,2.7,3.5,70,0.00,BKN,OVC,0.26,WeatherDisplay:10.37,2013-04-29 21:23:00,
2013-04-29 17:25:00,67.6,57.1,30.00,South,186,2.5,3.5,69,0.00,BKN,OVC,0.26,WeatherDisplay:10.37,2013-04-29 21:25:00,
2013-04-29 17:26:00,67.6,56.7,30.00,South,186,2.0,3.5,68,0.00,BKN,OVC,0.26,WeatherDisplay:10.37,2013-04-29 21:26:00,
2013-04-29 17:27:00,67.6,56.7,30.00,South,186,1.1,3.5,68,0.00,BKN,OVC,0.26,WeatherDisplay:10.37,2013-04-29 21:27:00,
2013-04-29 17:31:00,67.8,57.3,30.00,South,186,0.1,2.3,69,0.00,BKN,OVC,0.26,WeatherDisplay:10.37,2013-04-29 21:31:00,
2013-04-29 17:32:00,67.9,57.4,30.00,South,186,1.8,4.0,69,0.00,BKN,OVC,0.26,WeatherDisplay:10.37,2013-04-29 21:32:00,
2013-04-29 17:33:00,67.9,57.4,30.00,South,186,0.9,3.5,69,0.00,BKN,OVC,0.26,WeatherDisplay:10.37,2013-04-29 21:33:00,
2013-04-29 17:36:00,67.9,56.9,30.00,South,186,0.0,0.0,68,0.00,BKN,OVC,0.26,WeatherDisplay:10.37,2013-04-29 21:36:00,
2013-04-29 17:37:00,67.9,56.9,30.00,South,186,0.0,1.1,68,0.00,BKN,OVC,0.26,WeatherDisplay:10.37,2013-04-29 21:37:00,
2013-04-29 17:38:00,68.1,56.7,30.00,South,186,0.0,0.0,67,0.00,BKN,OVC,0.26,WeatherDisplay:10.37,2013-04-29 21:38:00,
2013-04-29 17:39:00,68.3,57.3,30.00,South,186,0.0,0.0,68,0.00,BKN,OVC,0.26,WeatherDisplay:10.37,2013-04-29 21:39:00,
2013-04-29 17:41:00,68.4,57.4,30.00,South,186,0.0,0.0,68,0.00,BKN,OVC,0.26,WeatherDisplay:10.37,2013-04-29 21:41:00,
2013-04-29 17:42:00,68.4,56.6,30.00,South,186,0.0,0.0,66,0.00,BKN,OVC,0.26,WeatherDisplay:10.37,2013-04-29 21:42:00,
2013-04-29 17:44:00,68.6,56.8,30.00,South,186,0.0,0.0,66,0.00,BKN,OVC,0.26,WeatherDisplay:10.37,2013-04-29 21:44:00,
2013-04-29 17:46:00,68.4,57.0,30.00,South,186,0.0,0.0,67,0.00,BKN,OVC,0.26,WeatherDisplay:10.37,2013-04-29 21:46:00,
2013-04-29 17:47:00,68.6,57.6,30.00,South,186,0.0,0.0,68,0.00,BKN,OVC,0.26,WeatherDisplay:10.37,2013-04-29 21:47:00,
2013-04-29 17:49:00,68.6,57.2,30.00,South,186,0.0,0.0,67,0.00,BKN,OVC,0.26,WeatherDisplay:10.37,2013-04-29 21:49:00,
2013-04-29 17:50:00,68.8,57.4,30.00,South,186,0.0,0.0,67,0.00,BKN,OVC,0.26,WeatherDisplay:10.37,2013-04-29 21:50:00,
2013-04-29 17:51:00,68.8,56.6,30.00,South,186,0.0,0.0,65,0.00,BKN,OVC,0.26,WeatherDisplay:10.37,2013-04-29 21:51:00,
2013-04-29 17:52:00,68.9,56.6,30.00,South,186,0.0,0.0,65,0.00,BKN,OVC,0.26,WeatherDisplay:10.37,2013-04-29 21:52:00,
2013-04-29 17:57:00,68.9,57.1,30.00,South,186,0.0,0.0,66,0.00,BKN,OVC,0.26,WeatherDisplay:10.37,2013-04-29 21:57:00,
2013-04-29 17:58:00,68.9,56.6,30.00,South,186,0.0,0.0,65,0.00,BKN,OVC,0.26,WeatherDisplay:10.37,2013-04-29 21:58:00,
2013-04-29 18:00:00,68.9,56.6,30.00,South,186,0.0,0.0,65,0.00,BKN,OVC,0.26,WeatherDisplay:10.37,2013-04-29 22:00:00,
2013-04-29 18:02:00,69.1,56.0,30.00,South,186,0.0,1.0,63,0.00,BKN,OVC,0.26,WeatherDisplay:10.37,2013-04-29 22:02:00,
2013-04-29 18:04:00,69.1,57.3,30.00,South,186,3.1,5.8,66,0.00,BKN,OVC,0.26,WeatherDisplay:10.37,2013-04-29 22:04:00,
2013-04-29 18:05:00,68.9,56.6,30.00,South,186,2.5,5.8,65,0.00,BKN,OVC,0.26,WeatherDisplay:10.37,2013-04-29 22:05:00,
2013-04-29 18:08:00,69.1,57.3,30.00,South,186,2.8,4.6,66,0.00,BKN,OVC,0.26,WeatherDisplay:10.37,2013-04-29 22:08:00,
2013-04-29 18:09:00,68.9,57.1,30.00,South,186,0.2,3.5,66,0.00,BKN,OVC,0.26,WeatherDisplay:10.37,2013-04-29 22:09:00,
2013-04-29 18:11:00,68.9,57.5,30.00,South,186,0.0,1.1,67,0.00,BKN,OVC,0.26,WeatherDisplay:10.37,2013-04-29 22:11:00,
2013-04-29 18:12:00,68.8,57.0,30.00,South,186,0.0,0.0,66,0.00,BKN,OVC,0.26,WeatherDisplay:10.37,2013-04-29 22:12:00,
2013-04-29 18:13:00,68.9,57.1,30.00,South,186,0.0,0.0,66,0.00,BKN,OVC,0.26,WeatherDisplay:10.37,2013-04-29 22:13:00,
2013-04-29 18:14:00,68.9,57.1,30.00,South,186,2.3,3.5,66,0.00,BKN,OVC,0.26,WeatherDisplay:10.37,2013-04-29 22:14:00,
2013-04-29 18:17:00,68.6,57.2,30.00,South,186,0.2,0.0,67,0.00,BKN,OVC,0.26,WeatherDisplay:10.37,2013-04-29 22:17:00,
2013-04-29 18:18:00,68.6,57.2,30.00,South,186,0.2,1.0,67,0.00,BKN,OVC,0.26,WeatherDisplay:10.37,2013-04-29 22:18:00,
2013-04-29 18:19:00,68.6,57.2,30.00,South,186,0.0,0.0,67,0.00,BKN,OVC,0.26,WeatherDisplay:10.37,2013-04-29 22:19:00,
2013-04-29 18:22:00,68.6,57.2,30.00,South,186,2.9,4.6,67,0.00,BKN,OVC,0.26,WeatherDisplay:10.37,2013-04-29 22:22:00,
2013-04-29 18:23:00,68.6,57.2,30.00,South,186,2.7,4.6,67,0.00,BKN,OVC,0.26,WeatherDisplay:10.37,2013-04-29 22:23:00,
2013-04-29 18:24:00,68.4,57.0,30.00,South,186,2.8,3.5,67,0.00,BKN,OVC,0.26,WeatherDisplay:10.37,2013-04-29 22:24:00,
2013-04-29 18:26:00,68.4,57.0,30.00,South,186,2.0,5.0,67,0.00,BKN,OVC,0.26,WeatherDisplay:10.37,2013-04-29 22:26:00,
2013-04-29 18:27:00,68.3,56.9,30.00,South,186,4.1,4.6,67,0.00,BKN,OVC,0.26,WeatherDisplay:10.37,2013-04-29 22:27:00,
2013-04-29 18:28:00,68.3,56.5,30.00,South,186,3.9,5.0,66,0.00,BKN,OVC,0.26,WeatherDisplay:10.37,2013-04-29 22:28:00,
2013-04-29 18:29:00,68.3,56.5,30.00,South,186,3.3,4.6,66,0.00,BKN,OVC,0.26,WeatherDisplay:10.37,2013-04-29 22:29:00,
2013-04-29 18:30:00,68.3,56.9,30.00,South,186,3.0,5.0,67,0.00,BKN,OVC,0.26,WeatherDisplay:10.37,2013-04-29 22:30:00,
2013-04-29 18:33:00,68.1,56.3,30.00,South,186,0.6,2.3,66,0.00,BKN,OVC,0.26,WeatherDisplay:10.37,2013-04-29 22:33:00,
2013-04-29 18:36:00,68.3,56.1,30.00,South,186,0.0,3.5,65,0.00,BKN,OVC,0.26,WeatherDisplay:10.37,2013-04-29 22:36:00,
2013-04-29 18:37:00,68.3,56.1,30.00,South,186,0.0,0.0,65,0.00,BKN,OVC,0.26,WeatherDisplay:10.37,2013-04-29 22:37:00,
2013-04-29 18:38:00,68.3,56.1,30.00,South,186,0.0,0.0,65,0.00,BKN,OVC,0.26,WeatherDisplay:10.37,2013-04-29 22:38:00,
2013-04-29 18:42:00,68.6,56.8,30.00,South,186,0.0,0.0,66,0.00,BKN,OVC,0.26,WeatherDisplay:10.37,2013-04-29 22:42:00,
2013-04-29 18:43:00,68.6,57.2,30.00,South,186,0.0,0.0,67,0.00,BKN,OVC,0.26,WeatherDisplay:10.37,2013-04-29 22:43:00,
2013-04-29 18:44:00,68.6,56.4,30.00,South,186,0.0,0.0,65,0.00,BKN,OVC,0.26,WeatherDisplay:10.37,2013-04-29 22:44:00,
2013-04-29 18:47:00,68.8,56.1,30.00,South,186,0.0,0.0,64,0.00,BKN,OVC,0.26,WeatherDisplay:10.37,2013-04-29 22:47:00,
2013-04-29 18:49:00,68.8,56.1,30.00,South,186,0.0,0.0,64,0.00,BKN,OVC,0.26,WeatherDisplay:10.37,2013-04-29 22:49:00,
2013-04-29 18:51:00,68.8,56.6,30.00,South,186,0.0,0.0,65,0.00,BKN,OVC,0.26,WeatherDisplay:10.37,2013-04-29 22:51:00,
2013-04-29 18:54:00,69.3,57.0,30.00,South,186,0.0,0.0,65,0.00,BKN,OVC,0.26,WeatherDisplay:10.37,2013-04-29 22:54:00,
2013-04-29 18:57:00,69.4,56.3,30.00,South,186,0.0,0.0,63,0.00,BKN,OVC,0.26,WeatherDisplay:10.37,2013-04-29 22:57:00,
2013-04-29 18:58:00,69.6,56.4,30.00,South,186,0.0,0.0,63,0.00,BKN,OVC,0.26,WeatherDisplay:10.37,2013-04-29 22:58:00,
2013-04-29 18:59:00,69.6,56.0,30.00,South,186,0.0,0.0,62,0.00,BKN,OVC,0.26,WeatherDisplay:10.37,2013-04-29 22:59:00,
2013-04-29 19:00:00,69.6,56.0,30.00,South,186,0.0,0.0,62,0.00,BKN,OVC,0.26,WeatherDisplay:10.37,2013-04-29 23:00:00,
2013-04-29 19:02:00,69.4,55.4,30.00,South,186,2.2,3.0,61,0.00,BKN,OVC,0.26,WeatherDisplay:10.37,2013-04-29 23:02:00,
2013-04-29 19:03:00,69.3,55.7,30.00,South,186,1.3,3.5,62,0.00,BKN,OVC,0.26,WeatherDisplay:10.37,2013-04-29 23:03:00,
2013-04-29 19:04:00,69.1,55.1,30.00,South,186,0.0,0.0,61,0.00,BKN,OVC,0.26,WeatherDisplay:10.37,2013-04-29 23:04:00,
2013-04-29 19:05:00,69.1,55.1,30.00,South,186,0.0,0.0,61,0.00,BKN,OVC,0.26,WeatherDisplay:10.37,2013-04-29 23:05:00,
2013-04-29 19:08:00,69.1,55.1,30.00,South,186,1.0,3.5,61,0.00,BKN,OVC,0.26,WeatherDisplay:10.37,2013-04-29 23:08:00,
2013-04-29 19:09:00,69.1,55.5,30.00,South,186,0.0,0.0,62,0.00,BKN,OVC,0.26,WeatherDisplay:10.37,2013-04-29 23:09:00,
2013-04-29 19:11:00,69.1,55.5,30.00,South,186,0.0,0.0,62,0.00,BKN,OVC,0.26,WeatherDisplay:10.37,2013-04-29 23:11:00,
2013-04-29 19:12:00,69.1,55.5,30.00,South,186,0.0,0.0,62,0.00,BKN,OVC,0.26,WeatherDisplay:10.37,2013-04-29 23:12:00,
2013-04-29 19:15:00,69.1,56.0,30.00,South,186,0.0,0.0,63,0.00,BKN,OVC,0.26,WeatherDisplay:10.37,2013-04-29 23:15:00,
2013-04-29 19:17:00,69.1,56.0,30.00,South,186,0.0,0.0,63,0.00,BKN,OVC,0.26,WeatherDisplay:10.37,2013-04-29 23:17:00,
2013-04-29 19:19:00,68.9,55.8,30.01,South,186,0.0,0.0,63,0.00,BKN,OVC,0.26,WeatherDisplay:10.37,2013-04-29 23:19:00,
2013-04-29 19:20:00,69.1,56.0,30.01,South,186,0.0,0.0,63,0.00,BKN,OVC,0.26,WeatherDisplay:10.37,2013-04-29 23:20:00,
2013-04-29 19:22:00,69.1,56.4,30.01,South,186,0.0,0.0,64,0.00,BKN,OVC,0.26,WeatherDisplay:10.37,2013-04-29 23:22:00,
2013-04-29 19:24:00,69.1,56.0,30.01,South,186,0.0,0.0,63,0.00,BKN,OVC,0.26,WeatherDisplay:10.37,2013-04-29 23:24:00,
2013-04-29 19:25:00,69.1,56.0,30.01,South,186,0.0,0.0,63,0.00,BKN,OVC,0.26,WeatherDisplay:10.37,2013-04-29 23:25:00,
2013-04-29 19:28:00,69.3,55.7,30.01,South,186,0.0,0.0,62,0.00,BKN,OVC,0.26,WeatherDisplay:10.37,2013-04-29 23:28:00,
2013-04-29 19:30:00,69.3,55.7,30.01,South,186,0.0,0.0,62,0.00,BKN,OVC,0.26,WeatherDisplay:10.37,2013-04-29 23:30:00,
2013-04-29 19:32:00,69.3,55.7,30.01,South,186,0.0,0.0,62,0.00,BKN,OVC,0.26,WeatherDisplay:10.37,2013-04-29 23:32:00,
2013-04-29 19:34:00,69.3,55.7,30.01,South,186,0.0,0.0,62,0.00,BKN,OVC,0.26,WeatherDisplay:10.37,2013-04-29 23:34:00,
2013-04-29 19:36:00,69.1,56.4,30.01,South,186,0.0,0.0,64,0.00,BKN,OVC,0.26,WeatherDisplay:10.37,2013-04-29 23:36:00,
2013-04-29 19:37:00,68.9,56.6,30.01,South,186,0.0,0.0,65,0.00,BKN,OVC,0.26,WeatherDisplay:10.37,2013-04-29 23:37:00,
2013-04-29 19:41:00,68.3,56.5,30.01,South,186,0.0,0.0,66,0.00,BKN,OVC,0.26,WeatherDisplay:10.37,2013-04-29 23:41:00,
2013-04-29 19:42:00,68.1,57.5,30.01,South,186,0.0,0.0,69,0.00,BKN,OVC,0.26,WeatherDisplay:10.37,2013-04-29 23:42:00,
2013-04-29 19:43:00,67.9,57.4,30.01,South,186,0.0,0.0,69,0.00,BKN,OVC,0.26,WeatherDisplay:10.37,2013-04-29 23:43:00,
2013-04-29 19:45:00,67.6,57.5,30.01,South,186,0.0,0.0,70,0.00,BKN,OVC,0.26,WeatherDisplay:10.37,2013-04-29 23:45:00,
2013-04-29 19:46:00,67.4,57.7,30.01,South,186,0.0,0.0,71,0.00,BKN,OVC,0.26,WeatherDisplay:10.37,2013-04-29 23:46:00,
2013-04-29 19:48:00,67.1,57.8,30.01,South,186,0.0,0.0,72,0.00,BKN,OVC,0.26,WeatherDisplay:10.37,2013-04-29 23:48:00,
2013-04-29 19:49:00,67.1,57.8,30.01,South,186,0.0,0.0,72,0.00,BKN,OVC,0.26,WeatherDisplay:10.37,2013-04-29 23:49:00,
2013-04-29 19:51:00,66.9,56.8,30.02,South,186,0.0,0.0,70,0.00,BKN,OVC,0.26,WeatherDisplay:10.37,2013-04-29 23:51:00,
2013-04-29 19:52:00,66.9,57.2,30.02,South,186,0.0,0.0,71,0.00,BKN,OVC,0.26,WeatherDisplay:10.37,2013-04-29 23:52:00,
2013-04-29 19:54:00,66.9,57.6,30.02,South,186,0.0,0.0,72,0.00,BKN,OVC,0.26,WeatherDisplay:10.37,2013-04-29 23:54:00,
2013-04-29 19:55:00,66.8,57.5,30.02,South,186,0.0,0.0,72,0.00,BKN,OVC,0.26,WeatherDisplay:10.37,2013-04-29 23:55:00,
2013-04-29 19:59:00,66.6,57.7,30.02,South,186,0.0,0.0,73,0.00,BKN,OVC,0.26,WeatherDisplay:10.37,2013-04-29 23:59:00,
2013-04-29 20:00:00,66.6,57.7,30.02,South,186,0.0,0.0,73,0.00,BKN,OVC,0.26,WeatherDisplay:10.37,2013-04-30 00:00:00,
2013-04-29 20:01:00,66.6,57.7,30.02,South,186,0.0,0.0,73,0.00,FEW,OVC,0.26,WeatherDisplay:10.37,2013-04-30 00:01:00,
2013-04-29 20:03:00,66.3,57.4,30.02,South,186,0.0,0.0,73,0.00,FEW,OVC,0.26,WeatherDisplay:10.37,2013-04-30 00:03:00,
2013-04-29 20:05:00,66.1,57.2,30.02,South,186,0.0,0.0,73,0.00,FEW,OVC,0.26,WeatherDisplay:10.37,2013-04-30 00:05:00,
2013-04-29 20:06:00,66.0,57.5,30.02,South,186,0.0,0.0,74,0.00,FEW,OVC,0.26,WeatherDisplay:10.37,2013-04-30 00:06:00,
2013-04-29 20:07:00,66.0,57.5,30.02,South,186,0.0,0.0,74,0.00,FEW,OVC,0.26,WeatherDisplay:10.37,2013-04-30 00:07:00,
2013-04-29 20:08:00,65.8,57.3,30.02,South,186,0.0,0.0,74,0.00,FEW,OVC,0.26,WeatherDisplay:10.37,2013-04-30 00:08:00,
2013-04-29 20:09:00,65.8,57.7,30.02,South,186,0.0,0.0,75,0.00,FEW,OVC,0.26,WeatherDisplay:10.37,2013-04-30 00:09:00,
2013-04-29 20:12:00,65.5,57.7,30.02,South,186,0.0,0.0,76,0.00,FEW,OVC,0.26,WeatherDisplay:10.37,2013-04-30 00:12:00,
2013-04-29 20:13:00,65.3,58.3,30.01,South,186,0.0,0.0,78,0.00,FEW,OVC,0.26,WeatherDisplay:10.37,2013-04-30 00:13:00,
2013-04-29 20:14:00,65.2,58.5,30.01,South,186,0.0,0.0,79,0.00,FEW,OVC,0.26,WeatherDisplay:10.37,2013-04-30 00:14:00,
2013-04-29 20:15:00,65.0,58.3,30.01,South,186,0.0,0.0,79,0.00,FEW,OVC,0.26,WeatherDisplay:10.37,2013-04-30 00:15:00,
2013-04-29 20:17:00,64.7,58.4,30.01,South,186,0.0,0.0,80,0.00,FEW,OVC,0.26,WeatherDisplay:10.37,2013-04-30 00:17:00,
2013-04-29 20:19:00,64.3,58.3,30.03,South,186,0.0,0.0,81,0.00,FEW,OVC,0.26,WeatherDisplay:10.37,2013-04-30 00:19:00,
2013-04-29 20:21:00,64.0,58.1,30.03,South,186,0.0,0.0,81,0.00,FEW,OVC,0.26,WeatherDisplay:10.37,2013-04-30 00:21:00,
2013-04-29 20:22:00,64.0,58.1,30.03,South,186,0.0,0.0,81,0.00,FEW,OVC,0.26,WeatherDisplay:10.37,2013-04-30 00:22:00,
2013-04-29 20:27:00,63.5,57.9,30.03,South,186,0.0,0.0,82,0.00,FEW,OVC,0.26,WeatherDisplay:10.37,2013-04-30 00:27:00,
2013-04-29 20:28:00,63.4,58.1,30.03,South,186,0.0,0.0,83,0.00,FEW,OVC,0.26,WeatherDisplay:10.37,2013-04-30 00:28:00,
2013-04-29 20:29:00,63.2,57.9,30.03,South,186,0.0,0.0,83,0.00,FEW,OVC,0.26,WeatherDisplay:10.37,2013-04-30 00:29:00,
2013-04-29 20:32:00,62.9,58.0,30.03,South,186,0.0,0.0,84,0.00,FEW,OVC,0.26,WeatherDisplay:10.37,2013-04-30 00:32:00,
2013-04-29 20:34:00,62.7,57.8,30.03,South,186,0.0,0.0,84,0.00,FEW,OVC,0.26,WeatherDisplay:10.37,2013-04-30 00:34:00,
2013-04-29 20:35:00,62.6,57.7,30.03,South,186,0.0,0.0,84,0.00,FEW,OVC,0.26,WeatherDisplay:10.37,2013-04-30 00:35:00,
2013-04-29 20:37:00,62.4,57.5,30.03,South,186,0.0,0.0,84,0.00,FEW,OVC,0.26,WeatherDisplay:10.37,2013-04-30 00:37:00,
2013-04-29 20:38:00,62.3,57.4,30.03,South,186,0.0,0.0,84,0.00,FEW,OVC,0.26,WeatherDisplay:10.37,2013-04-30 00:38:00,
2013-04-29 20:41:00,62.1,57.5,30.03,South,186,0.0,0.0,85,0.00,FEW,OVC,0.26,WeatherDisplay:10.37,2013-04-30 00:41:00,
2013-04-29 20:42:00,62.0,57.4,30.03,South,186,0.0,0.0,85,0.00,FEW,OVC,0.26,WeatherDisplay:10.37,2013-04-30 00:42:00,
2013-04-29 20:44:00,61.8,57.6,30.03,South,186,0.0,0.0,86,0.00,FEW,OVC,0.26,WeatherDisplay:10.37,2013-04-30 00:44:00,
2013-04-29 20:47:00,61.5,57.3,30.03,South,186,0.0,0.0,86,0.00,FEW,OVC,0.26,WeatherDisplay:10.37,2013-04-30 00:47:00,
2013-04-29 20:49:00,61.2,57.3,30.03,South,186,0.0,0.0,87,0.00,FEW,OVC,0.26,WeatherDisplay:10.37,2013-04-30 00:49:00,
2013-04-29 20:50:00,61.0,57.4,30.03,South,186,0.0,0.0,88,0.00,FEW,OVC,0.26,WeatherDisplay:10.37,2013-04-30 00:50:00,
2013-04-29 20:51:00,60.9,57.3,30.03,South,186,0.0,0.0,88,0.00,FEW,OVC,0.26,WeatherDisplay:10.37,2013-04-30 00:51:00,
2013-04-29 20:53:00,60.7,57.1,30.03,South,186,0.0,0.0,88,0.00,FEW,OVC,0.26,WeatherDisplay:10.37,2013-04-30 00:53:00,
2013-04-29 20:55:00,60.5,56.9,30.03,South,186,0.0,0.0,88,0.00,FEW,OVC,0.26,WeatherDisplay:10.37,2013-04-30 00:55:00,
2013-04-29 20:56:00,60.5,57.2,30.03,South,186,0.0,0.0,89,0.00,FEW,OVC,0.26,WeatherDisplay:10.37,2013-04-30 00:56:00,
2013-04-29 20:58:00,60.4,57.1,30.03,South,186,0.0,0.0,89,0.00,FEW,OVC,0.26,WeatherDisplay:10.37,2013-04-30 00:58:00,
2013-04-29 21:01:00,60.1,57.2,30.03,South,186,0.0,0.0,90,0.00,FEW,OVC,0.26,WeatherDisplay:10.37,2013-04-30 01:01:00,
2013-04-29 21:02:00,60.1,57.2,30.03,South,186,0.0,0.0,90,0.00,FEW,OVC,0.26,WeatherDisplay:10.37,2013-04-30 01:02:00,
2013-04-29 21:03:00,60.1,57.2,30.03,South,186,0.0,0.0,90,0.00,FEW,OVC,0.26,WeatherDisplay:10.37,2013-04-30 01:03:00,
2013-04-29 21:04:00,59.9,57.0,30.03,South,186,0.0,0.0,90,0.00,FEW,OVC,0.26,WeatherDisplay:10.37,2013-04-30 01:04:00,
2013-04-29 21:06:00,59.9,57.3,30.03,South,186,0.0,0.0,91,0.00,FEW,OVC,0.26,WeatherDisplay:10.37,2013-04-30 01:06:00,
2013-04-29 21:09:00,59.8,57.2,30.03,South,186,0.0,0.0,91,0.00,FEW,OVC,0.26,WeatherDisplay:10.37,2013-04-30 01:09:00,
2013-04-29 21:10:00,59.8,57.2,30.03,South,186,0.0,0.0,91,0.00,FEW,OVC,0.26,WeatherDisplay:10.37,2013-04-30 01:10:00,
2013-04-29 21:12:00,59.5,56.9,30.03,South,186,0.0,0.0,91,0.00,FEW,OVC,0.26,WeatherDisplay:10.37,2013-04-30 01:12:00,
2013-04-29 21:13:00,59.5,56.9,30.03,South,186,0.0,0.0,91,0.00,FEW,OVC,0.26,WeatherDisplay:10.37,2013-04-30 01:13:00,
2013-04-29 21:14:00,59.5,56.9,30.03,South,186,0.0,0.0,91,0.00,FEW,OVC,0.26,WeatherDisplay:10.37,2013-04-30 01:14:00,
2013-04-29 21:17:00,59.3,57.0,30.03,South,186,3.1,3.5,92,0.00,FEW,OVC,0.26,WeatherDisplay:10.37,2013-04-30 01:17:00,
2013-04-29 21:18:00,59.3,57.0,30.03,South,186,3.1,3.5,92,0.00,FEW,OVC,0.26,WeatherDisplay:10.37,2013-04-30 01:18:00,
2013-04-29 21:19:00,59.3,57.0,30.03,South,186,3.1,3.5,92,0.00,FEW,OVC,0.26,WeatherDisplay:10.37,2013-04-30 01:19:00,
2013-04-29 21:20:00,59.2,56.9,30.03,South,186,3.0,4.0,92,0.00,FEW,OVC,0.26,WeatherDisplay:10.37,2013-04-30 01:20:00,
2013-04-29 21:22:00,59.2,56.9,30.03,South,186,2.8,4.0,92,0.00,FEW,OVC,0.26,WeatherDisplay:10.37,2013-04-30 01:22:00,
2013-04-29 21:25:00,59.0,56.7,30.03,South,186,3.5,4.0,92,0.00,FEW,OVC,0.26,WeatherDisplay:10.37,2013-04-30 01:25:00,
2013-04-29 21:26:00,58.9,56.6,30.03,South,186,3.6,4.0,92,0.00,FEW,OVC,0.26,WeatherDisplay:10.37,2013-04-30 01:26:00,
2013-04-29 21:28:00,58.9,56.9,30.03,South,186,4.3,5.0,93,0.00,FEW,OVC,0.26,WeatherDisplay:10.37,2013-04-30 01:28:00,
2013-04-29 21:29:00,58.9,56.9,30.03,South,186,4.5,5.0,93,0.00,FEW,OVC,0.26,WeatherDisplay:10.37,2013-04-30 01:29:00,
2013-04-29 21:31:00,59.2,57.5,30.03,South,186,4.1,4.6,94,0.00,FEW,OVC,0.26,WeatherDisplay:10.37,2013-04-30 01:31:00,
2013-04-29 21:32:00,59.2,57.5,30.03,South,186,3.3,4.0,94,0.00,FEW,OVC,0.26,WeatherDisplay:10.37,2013-04-30 01:32:00,
2013-04-29 21:35:00,59.3,57.3,30.04,South,186,3.6,4.6,93,0.00,FEW,OVC,0.26,WeatherDisplay:10.37,2013-04-30 01:35:00,
2013-04-29 21:36:00,59.3,57.3,30.04,South,186,3.5,4.0,93,0.00,FEW,OVC,0.26,WeatherDisplay:10.37,2013-04-30 01:36:00,
2013-04-29 21:37:00,59.3,57.3,30.04,South,186,3.3,3.5,93,0.00,FEW,OVC,0.26,WeatherDisplay:10.37,2013-04-30 01:37:00,
2013-04-29 21:39:00,59.2,57.2,30.04,South,186,3.5,3.5,93,0.00,FEW,OVC,0.26,WeatherDisplay:10.37,2013-04-30 01:39:00,
2013-04-29 21:41:00,59.3,57.3,30.04,South,186,3.2,3.5,93,0.00,FEW,OVC,0.26,WeatherDisplay:10.37,2013-04-30 01:41:00,
2013-04-29 21:43:00,59.5,57.8,30.04,South,186,3.8,4.0,94,0.00,FEW,OVC,0.26,WeatherDisplay:10.37,2013-04-30 01:43:00,
2013-04-29 21:45:00,59.6,57.9,30.04,South,186,3.0,5.0,94,0.00,FEW,OVC,0.26,WeatherDisplay:10.37,2013-04-30 01:45:00,
2013-04-29 21:49:00,59.9,57.9,30.04,South,186,3.2,3.5,93,0.00,FEW,OVC,0.26,WeatherDisplay:10.37,2013-04-30 01:49:00,
2013-04-29 21:50:00,59.9,57.9,30.05,South,186,2.6,3.5,93,0.00,FEW,OVC,0.26,WeatherDisplay:10.37,2013-04-30 01:50:00,
2013-04-29 21:52:00,59.9,57.6,30.05,South,186,1.6,2.3,92,0.00,FEW,OVC,0.26,WeatherDisplay:10.37,2013-04-30 01:52:00,
2013-04-29 21:53:00,59.8,57.5,30.05,South,186,0.0,2.3,92,0.00,FEW,OVC,0.26,WeatherDisplay:10.37,2013-04-30 01:53:00,
2013-04-29 21:55:00,59.5,57.2,30.05,South,186,1.3,3.5,92,0.00,FEW,OVC,0.26,WeatherDisplay:10.37,2013-04-30 01:55:00,
2013-04-29 21:56:00,59.3,57.0,30.05,South,186,2.6,3.5,92,0.00,FEW,OVC,0.26,WeatherDisplay:10.37,2013-04-30 01:56:00,
2013-04-29 21:57:00,59.2,56.9,30.05,South,186,2.5,3.5,92,0.00,FEW,OVC,0.26,WeatherDisplay:10.37,2013-04-30 01:57:00,
2013-04-29 22:00:00,59.0,56.7,30.05,South,186,3.0,4.0,92,0.00,FEW,OVC,0.26,WeatherDisplay:10.37,2013-04-30 02:00:00,
2013-04-29 22:02:00,59.2,57.2,30.05,South,186,3.3,3.5,93,0.00,FEW,OVC,0.26,WeatherDisplay:10.37,2013-04-30 02:02:00,
2013-04-29 22:03:00,59.3,57.3,30.05,South,186,2.6,3.5,93,0.00,FEW,OVC,0.26,WeatherDisplay:10.37,2013-04-30 02:03:00,
2013-04-29 22:04:00,59.3,57.3,30.05,South,186,2.3,3.5,93,0.00,FEW,OVC,0.26,WeatherDisplay:10.37,2013-04-30 02:04:00,
2013-04-29 22:05:00,59.5,57.5,30.05,South,186,2.2,3.5,93,0.00,FEW,OVC,0.26,WeatherDisplay:10.37,2013-04-30 02:05:00,
2013-04-29 22:08:00,59.6,57.6,30.05,South,186,1.2,2.3,93,0.00,FEW,OVC,0.26,WeatherDisplay:10.37,2013-04-30 02:08:00,
2013-04-29 22:09:00,59.6,57.6,30.05,South,186,0.7,2.3,93,0.00,FEW,OVC,0.26,WeatherDisplay:10.37,2013-04-30 02:09:00,
2013-04-29 22:10:00,59.6,57.6,30.05,South,186,0.0,0.0,93,0.00,FEW,OVC,0.26,WeatherDisplay:10.37,2013-04-30 02:10:00,
2013-04-29 22:13:00,59.6,57.6,30.05,South,186,0.0,0.0,93,0.00,FEW,OVC,0.26,WeatherDisplay:10.37,2013-04-30 02:13:00,
2013-04-29 22:16:00,59.6,57.6,30.05,South,186,0.0,0.0,93,0.00,FEW,OVC,0.26,WeatherDisplay:10.37,2013-04-30 02:16:00,
2013-04-29 22:17:00,59.6,57.6,30.05,South,186,0.0,0.0,93,0.00,FEW,OVC,0.26,WeatherDisplay:10.37,2013-04-30 02:17:00,
2013-04-29 22:18:00,59.6,57.6,30.05,South,186,1.5,3.5,93,0.00,FEW,OVC,0.26,WeatherDisplay:10.37,2013-04-30 02:18:00,
2013-04-29 22:21:00,59.6,57.6,30.05,South,186,2.0,3.5,93,0.00,FEW,OVC,0.26,WeatherDisplay:10.37,2013-04-30 02:21:00,
2013-04-29 22:24:00,59.8,57.8,30.05,South,186,0.0,2.3,93,0.00,FEW,OVC,0.26,WeatherDisplay:10.37,2013-04-30 02:24:00,
2013-04-29 22:26:00,59.6,57.6,30.05,South,186,0.0,0.0,93,0.00,FEW,OVC,0.26,WeatherDisplay:10.37,2013-04-30 02:26:00,
2013-04-29 22:28:00,59.8,58.1,30.05,South,186,0.0,0.0,94,0.00,FEW,OVC,0.26,WeatherDisplay:10.37,2013-04-30 02:28:00,
2013-04-29 22:30:00,59.8,58.1,30.05,South,186,0.0,0.0,94,0.00,FEW,OVC,0.26,WeatherDisplay:10.37,2013-04-30 02:30:00,
2013-04-29 22:32:00,59.8,57.8,30.05,South,186,0.0,0.0,93,0.00,FEW,OVC,0.26,WeatherDisplay:10.37,2013-04-30 02:32:00,
2013-04-29 22:34:00,59.6,57.6,30.05,South,186,0.0,0.0,93,0.00,FEW,OVC,0.26,WeatherDisplay:10.37,2013-04-30 02:34:00,
2013-04-29 22:37:00,59.3,57.0,30.05,South,186,0.0,0.0,92,0.00,FEW,OVC,0.26,WeatherDisplay:10.37,2013-04-30 02:37:00,
2013-04-29 22:38:00,59.2,57.2,30.05,South,186,0.0,0.0,93,0.00,FEW,OVC,0.26,WeatherDisplay:10.37,2013-04-30 02:38:00,
2013-04-29 22:39:00,59.2,57.2,30.05,South,186,0.0,0.0,93,0.00,FEW,OVC,0.26,WeatherDisplay:10.37,2013-04-30 02:39:00,
2013-04-29 22:41:00,59.3,57.6,30.05,South,186,0.0,0.0,94,0.00,FEW,OVC,0.26,WeatherDisplay:10.37,2013-04-30 02:41:00,
2013-04-29 22:43:00,59.3,57.6,30.05,South,186,0.0,0.0,94,0.00,FEW,OVC,0.26,WeatherDisplay:10.37,2013-04-30 02:43:00,
2013-04-29 22:44:00,59.3,57.6,30.05,South,186,0.0,0.0,94,0.00,FEW,OVC,0.26,WeatherDisplay:10.37,2013-04-30 02:44:00,
2013-04-29 22:45:00,59.3,57.6,30.05,South,186,0.0,0.0,94,0.00,FEW,OVC,0.26,WeatherDisplay:10.37,2013-04-30 02:45:00,
2013-04-29 22:46:00,59.5,57.8,30.05,South,186,0.0,0.0,94,0.00,FEW,OVC,0.26,WeatherDisplay:10.37,2013-04-30 02:46:00,
2013-04-29 22:49:00,59.2,57.2,30.05,South,186,0.0,0.0,93,0.00,FEW,OVC,0.26,WeatherDisplay:10.37,2013-04-30 02:49:00,
2013-04-29 22:50:00,59.0,57.0,30.05,South,186,0.0,0.0,93,0.00,FEW,OVC,0.26,WeatherDisplay:10.37,2013-04-30 02:50:00,
2013-04-29 22:51:00,59.0,57.0,30.05,South,186,0.0,0.0,93,0.00,FEW,OVC,0.26,WeatherDisplay:10.37,2013-04-30 02:51:00,
2013-04-29 22:52:00,59.0,57.0,30.05,South,186,0.0,0.0,93,0.00,FEW,OVC,0.26,WeatherDisplay:10.37,2013-04-30 02:52:00,
2013-04-29 22:55:00,59.0,57.3,30.05,South,186,2.4,3.5,94,0.00,FEW,OVC,0.26,WeatherDisplay:10.37,2013-04-30 02:55:00,
2013-04-29 22:56:00,59.0,57.3,30.05,South,186,2.3,3.5,94,0.00,FEW,OVC,0.26,WeatherDisplay:10.37,2013-04-30 02:56:00,
2013-04-29 22:57:00,59.2,57.5,30.05,South,186,2.1,3.5,94,0.00,FEW,OVC,0.26,WeatherDisplay:10.37,2013-04-30 02:57:00,
2013-04-29 22:59:00,59.3,57.6,30.05,South,186,1.8,3.5,94,0.00,FEW,OVC,0.26,WeatherDisplay:10.37,2013-04-30 02:59:00,
2013-04-29 23:00:00,59.3,57.6,30.05,South,186,1.7,2.3,94,0.00,FEW,OVC,0.26,WeatherDisplay:10.37,2013-04-30 03:00:00,
2013-04-29 23:02:00,59.3,57.6,30.05,South,186,0.2,2.3,94,0.00,SCT,OVC,0.26,WeatherDisplay:10.37,2013-04-30 03:02:00,
2013-04-29 23:03:00,59.3,57.6,30.05,South,186,0.0,0.0,94,0.00,SCT,OVC,0.26,WeatherDisplay:10.37,2013-04-30 03:03:00,
2013-04-29 23:06:00,59.3,57.6,30.05,South,186,0.0,0.0,94,0.00,SCT,OVC,0.26,WeatherDisplay:10.37,2013-04-30 03:06:00,
2013-04-29 23:08:00,59.3,57.6,30.05,South,186,0.0,0.0,94,0.00,SCT,OVC,0.26,WeatherDisplay:10.37,2013-04-30 03:08:00,
2013-04-29 23:09:00,59.3,57.6,30.05,South,186,0.0,0.0,94,0.00,SCT,OVC,0.26,WeatherDisplay:10.37,2013-04-30 03:09:00,
2013-04-29 23:11:00,59.2,57.5,30.05,South,186,0.0,0.0,94,0.00,SCT,OVC,0.26,WeatherDisplay:10.37,2013-04-30 03:11:00,
2013-04-29 23:14:00,58.7,57.0,30.05,South,186,0.0,0.0,94,0.00,SCT,OVC,0.26,WeatherDisplay:10.37,2013-04-30 03:14:00,
2013-04-29 23:16:00,58.7,57.0,30.05,South,186,0.0,0.0,94,0.00,SCT,OVC,0.26,WeatherDisplay:10.37,2013-04-30 03:16:00,
2013-04-29 23:19:00,58.9,57.5,30.05,South,186,0.0,0.0,95,0.00,SCT,OVC,0.26,WeatherDisplay:10.37,2013-04-30 03:19:00,
2013-04-29 23:20:00,58.9,57.5,30.05,South,186,0.0,0.0,95,0.00,SCT,OVC,0.26,WeatherDisplay:10.37,2013-04-30 03:20:00,
2013-04-29 23:21:00,58.9,57.5,30.05,South,186,0.0,0.0,95,0.00,SCT,OVC,0.26,WeatherDisplay:10.37,2013-04-30 03:21:00,
2013-04-29 23:23:00,58.9,57.5,30.05,South,186,0.0,0.0,95,0.00,SCT,OVC,0.26,WeatherDisplay:10.37,2013-04-30 03:23:00,
2013-04-29 23:25:00,58.7,57.0,30.05,South,186,0.0,0.0,94,0.00,SCT,OVC,0.26,WeatherDisplay:10.37,2013-04-30 03:25:00,
2013-04-29 23:26:00,58.6,56.9,30.05,South,186,0.0,0.0,94,0.00,SCT,OVC,0.26,WeatherDisplay:10.37,2013-04-30 03:26:00,
2013-04-29 23:27:00,58.6,57.2,30.05,South,186,0.0,0.0,95,0.00,SCT,OVC,0.26,WeatherDisplay:10.37,2013-04-30 03:27:00,
2013-04-29 23:28:00,58.6,57.2,30.05,South,186,0.0,0.0,95,0.00,SCT,OVC,0.26,WeatherDisplay:10.37,2013-04-30 03:28:00,
2013-04-29 23:31:00,58.4,57.0,30.05,South,186,0.0,0.0,95,0.00,SCT,OVC,0.26,WeatherDisplay:10.37,2013-04-30 03:31:00,
2013-04-29 23:32:00,58.6,57.2,30.05,South,186,0.0,0.0,95,0.00,SCT,OVC,0.26,WeatherDisplay:10.37,2013-04-30 03:32:00,
2013-04-29 23:33:00,58.6,57.2,30.05,South,186,0.0,0.0,95,0.00,SCT,OVC,0.26,WeatherDisplay:10.37,2013-04-30 03:33:00,
2013-04-29 23:37:00,58.9,57.8,30.05,South,186,2.8,3.5,96,0.00,SCT,OVC,0.26,WeatherDisplay:10.37,2013-04-30 03:37:00,
2013-04-29 23:38:00,58.9,57.8,30.05,South,186,2.4,3.5,96,0.00,SCT,OVC,0.26,WeatherDisplay:10.37,2013-04-30 03:38:00,
2013-04-29 23:39:00,59.0,57.9,30.05,South,186,2.4,3.5,96,0.00,SCT,OVC,0.26,WeatherDisplay:10.37,2013-04-30 03:39:00,
2013-04-29 23:42:00,58.9,57.5,30.05,South,186,2.9,3.5,95,0.00,SCT,OVC,0.26,WeatherDisplay:10.37,2013-04-30 03:42:00,
2013-04-29 23:43:00,58.9,57.5,30.05,South,186,2.8,3.5,95,0.00,SCT,OVC,0.26,WeatherDisplay:10.37,2013-04-30 03:43:00,
2013-04-29 23:44:00,58.9,57.8,30.05,South,186,2.9,3.5,96,0.00,SCT,OVC,0.26,WeatherDisplay:10.37,2013-04-30 03:44:00,
2013-04-29 23:45:00,59.0,57.9,30.05,South,186,3.0,3.5,96,0.00,SCT,OVC,0.26,WeatherDisplay:10.37,2013-04-30 03:45:00,
2013-04-29 23:48:00,58.9,57.8,30.05,South,186,3.7,3.7,96,0.00,SCT,OVC,0.26,WeatherDisplay:10.37,2013-04-30 03:48:00,
2013-04-29 23:50:00,58.7,57.3,30.05,South,186,3.6,4.0,95,0.00,SCT,OVC,0.26,WeatherDisplay:10.37,2013-04-30 03:50:00,
2013-04-29 23:51:00,58.7,57.3,30.05,South,186,3.5,3.5,95,0.00,SCT,OVC,0.26,WeatherDisplay:10.37,2013-04-30 03:51:00,
2013-04-29 23:53:00,58.7,57.6,30.05,South,186,3.3,4.6,96,0.00,SCT,OVC,0.26,WeatherDisplay:10.37,2013-04-30 03:53:00,
2013-04-29 23:55:00,58.9,57.8,30.05,South,186,3.0,3.5,96,0.00,SCT,OVC,0.26,WeatherDisplay:10.37,2013-04-30 03:55:00,
2013-04-29 23:56:00,58.9,57.8,30.05,South,186,3.1,3.5,96,0.00,SCT,OVC,0.26,WeatherDisplay:10.37,2013-04-30 03:56:00,
2013-04-29 23:59:00,59.0,57.9,30.05,South,186,2.6,4.0,96,0.00,SCT,OVC,0.26,WeatherDisplay:10.37,2013-04-30 03:59:00,